Data for 09/21/2009

Time Sea-Level Adjusted Pressure Absolute Pressure Temperature Relative Humidity Dew Point Precipitation   
(mb) (inHg) (mb) (inHg) (C) (F) (%) (C) (F) (mm) (in)
00:01 1031 30.45 860 25.4 2.9 37.2 87 0.9 33.7 3.302 0.13
00:02 1031 30.45 860 25.4 2.8 37 87 0.9 33.6 3.234 0.127
00:03 1031 30.45 860 25.4 2.7 36.8 88 0.8 33.5 3.126 0.123
00:04 1031 30.45 860 25.4 2.6 36.6 88 0.8 33.5 3.036 0.12
00:05 1031 30.45 860 25.4 2.5 36.6 88 0.8 33.5 2.968 0.117
00:06 1031 30.45 860 25.4 2.5 36.6 88 0.8 33.5 2.957 0.116
00:07 1031 30.45 860 25.4 2.5 36.4 88 0.7 33.3 2.923 0.115
00:08 1031 30.45 860 25.4 2.4 36.4 89 0.7 33.3 2.872 0.113
00:09 1031 30.45 860 25.4 2.4 36.3 89 0.7 33.3 2.872 0.113
00:10 1031 30.45 860 25.4 2.3 36.2 89 0.7 33.2 2.804 0.11
00:11 1031 30.45 860 25.4 2.3 36.2 89 0.7 33.2 2.787 0.11
00:12 1031 30.45 860 25.4 2.3 36.2 89 0.7 33.3 2.787 0.11
00:13 1031 30.45 860 25.4 2.3 36.2 89 0.7 33.3 2.747 0.108
00:14 1031 30.45 860 25.4 2.3 36.2 89 0.7 33.3 2.771 0.109
00:15 1031 30.45 860 25.4 2.4 36.2 89 0.7 33.3 2.783 0.11
00:16 1031 30.45 860 25.4 2.3 36.2 89 0.7 33.2 2.72 0.107
00:17 1031 30.45 860 25.4 2.3 36.2 89 0.7 33.2 2.71 0.107
00:18 1031 30.45 860 25.4 2.3 36.2 90 0.8 33.4 2.744 0.108
00:19 1031 30.45 860 25.4 2.4 36.3 89 0.7 33.3 2.818 0.111
00:20 1031 30.45 860 25.4 2.4 36.3 89 0.7 33.2 2.768 0.109
00:21 1031 30.45 860 25.4 2.4 36.3 89 0.7 33.3 2.813 0.111
00:22 1031 30.45 860 25.4 2.4 36.4 89 0.8 33.4 2.807 0.111
00:23 1031 30.45 860 25.4 2.5 36.5 89 0.8 33.5 2.853 0.112
00:24 1031 30.45 860 25.4 2.5 36.6 88 0.8 33.5 2.955 0.116
00:25 1031 30.45 860 25.4 2.6 36.7 88 0.8 33.5 2.995 0.118
00:26 1031 30.45 860 25.4 2.6 36.7 88 0.8 33.4 2.995 0.118
00:27 1031 30.45 860 25.4 2.6 36.7 88 0.8 33.4 2.978 0.117
00:28 1031 30.45 860 25.4 2.5 36.5 88 0.7 33.2 2.882 0.113
00:29 1031 30.45 860 25.4 2.4 36.3 88 0.6 33.1 2.799 0.11
00:30 1031 30.45 860 25.4 2.4 36.3 88 0.6 33.1 2.771 0.109
00:31 1031 30.45 860 25.4 2.3 36.1 88 0.5 33 2.686 0.106
00:32 1031 30.45 860 25.4 2.3 36.1 89 0.7 33.3 2.705 0.106
00:33 1031 30.45 860 25.4 2.3 36.2 89 0.7 33.2 2.744 0.108
00:34 1031 30.45 860 25.4 2.3 36.2 89 0.6 33.1 2.739 0.108
00:35 1031 30.45 860 25.4 2.3 36.2 89 0.7 33.2 2.745 0.108
00:36 1031 30.45 860 25.4 2.4 36.3 89 0.7 33.3 2.762 0.109
00:37 1031 30.45 860 25.4 2.4 36.3 89 0.7 33.2 2.791 0.11
00:38 1031 30.45 860 25.4 2.4 36.3 89 0.7 33.2 2.763 0.109
00:39 1031 30.45 860 25.4 2.4 36.2 88 0.6 33.1 2.78 0.109
00:40 1031 30.45 860 25.4 2.3 36.2 89 0.7 33.3 2.769 0.109
00:41 1031 30.45 860 25.4 2.3 36.2 89 0.8 33.4 2.753 0.108
00:42 1031 30.45 860 25.4 2.3 36.1 89 0.7 33.2 2.719 0.107
00:43 1031 30.45 860 25.4 2.3 36.1 89 0.7 33.2 2.719 0.107
00:44 1031 30.45 860 25.4 2.2 36 89 0.6 33.1 2.64 0.104
00:45 1031 30.45 860 25.4 2.1 35.8 89 0.5 32.9 2.595 0.102
00:46 1031 30.45 860 25.4 2 35.5 89 0.4 32.7 2.442 0.096
00:47 1031 30.45 860 25.4 1.8 35.3 90 0.3 32.5 2.313 0.091
00:48 1031 30.45 860 25.4 1.7 35.1 90 0.2 32.4 2.194 0.086
00:49 1031 30.45 860 25.4 1.6 34.8 91 0.2 32.3 2.041 0.08
00:50 1031 30.45 860 25.4 1.5 34.7 91 0.2 32.4 1.928 0.076
00:51 1031 30.45 860 25.4 1.4 34.5 91 0.1 32.2 1.86 0.073
00:52 1031 30.45 860 25.4 1.3 34.4 92 0.1 32.1 1.781 0.07
00:53 1031 30.45 860 25.4 1.3 34.3 92 0.2 32.3 1.73 0.068
00:54 1031 30.45 860 25.4 1.2 34.2 92 0.1 32.3 1.713 0.067
00:55 1031 30.45 860 25.4 1.3 34.3 93 0.2 32.3 1.691 0.067
00:56 1031 30.45 860 25.4 1.3 34.3 93 0.3 32.5 1.725 0.068
00:57 1031 30.45 860 25.4 1.3 34.4 93 0.3 32.6 1.765 0.069
00:58 1031 30.45 860 25.4 1.4 34.5 93 0.4 32.7 1.861 0.073
00:59 1031 30.45 860 25.4 1.5 34.7 93 0.5 32.8 1.923 0.076
01:00 1031 30.45 860 25.4 1.5 34.7 93 0.4 32.8 1.969 0.078
01:01 1031 30.45 860 25.4 1.5 34.8 92 0.4 32.8 1.986 0.078
01:02 1031 30.45 860 25.4 1.5 34.7 92 0.4 32.7 1.991 0.078
01:03 1031 30.45 860 25.4 1.5 34.8 92 0.4 32.8 1.952 0.077
01:04 1031 30.45 860 25.4 1.5 34.8 92 0.4 32.7 1.963 0.077
01:05 1031 30.45 860 25.4 1.5 34.8 92 0.4 32.7 1.946 0.077
01:06 1031 30.45 860 25.4 1.5 34.7 92 0.4 32.6 1.941 0.076
01:07 1031 30.45 860 25.4 1.5 34.7 92 0.3 32.6 1.935 0.076
01:08 1031 30.45 860 25.4 1.4 34.6 92 0.3 32.5 1.89 0.074
01:09 1031 30.45 860 25.4 1.4 34.6 92 0.3 32.5 1.884 0.074
01:10 1031 30.45 860 25.4 1.4 34.6 92 0.3 32.5 1.896 0.075
01:11 1031 30.45 860 25.4 1.5 34.6 92 0.3 32.5 1.862 0.073
01:12 1031 30.45 860 25.4 1.4 34.6 92 0.2 32.4 1.862 0.073
01:13 1031 30.45 860 25.4 1.4 34.6 92 0.2 32.4 1.85 0.073
01:14 1031 30.45 860 25.4 1.4 34.5 92 0.2 32.3 1.788 0.07
01:15 1031 30.45 860 25.4 1.3 34.4 91 0.1 32.2 1.748 0.069
01:16 1031 30.45 860 25.4 1.3 34.4 92 0.1 32.2 1.726 0.068
01:17 1031 30.45 860 25.4 1.3 34.4 92 0.1 32.2 1.743 0.069
01:18 1031 30.45 860 25.4 1.4 34.5 92 0.2 32.3 1.765 0.069
01:19 1031 30.45 860 25.4 1.4 34.4 91 0.1 32.2 1.749 0.069
01:20 1031 30.45 860 25.4 1.3 34.4 91 0.1 32.1 1.726 0.068
01:21 1031 30.45 860 25.4 1.3 34.3 92 0.1 32.1 1.698 0.067
01:22 1031 30.45 860 25.4 1.3 34.4 91 0 32.1 1.698 0.067
01:23 1031 30.45 860 25.4 1.3 34.3 91 -0 32 1.715 0.068
01:24 1031 30.45 860 25.4 1.2 34.2 89 -0.4 31.4 1.624 0.064
01:25 1031 30.45 860 25.4 0.9 33.6 90 -0.6 30.9 1.376 0.054
01:26 1031 30.45 860 25.4 0.7 33.3 91 -0.6 30.9 1.144 0.045
01:27 1031 30.45 860 25.4 0.6 33 92 -0.6 30.9 .997 0.039
01:28 1031 30.45 860 25.4 0.4 32.8 93 -0.6 30.9 .907 0.036
01:29 1031 30.45 860 25.4 0.5 32.9 93 -0.5 31.1 .94 0.037
01:30 1031 30.45 860 25.4 0.5 32.9 93 -0.5 31.2 .98 0.039
01:31 1031 30.45 860 25.4 0.5 32.9 93 -0.4 31.2 .987 0.039
01:32 1031 30.45 860 25.4 0.5 32.9 93 -0.5 31.1 1.004 0.04
01:33 1031 30.45 860 25.4 0.6 33 93 -0.4 31.3 .965 0.038
01:34 1031 30.45 860 25.4 0.6 33 93 -0.4 31.2 .994 0.039
01:35 1031 30.45 860 25.4 0.6 33 93 -0.4 31.2 .999 0.039
01:36 1031 30.45 860 25.4 0.6 33 93 -0.4 31.2 .971 0.038
01:37 1031 30.45 860 25.4 0.6 33.1 93 -0.3 31.4 1.017 0.04
01:38 1031 30.45 860 25.4 0.7 33.2 93 -0.3 31.4 1.085 0.043
01:39 1031 30.45 860 25.4 0.7 33.3 93 -0.3 31.5 1.091 0.043
01:40 1031 30.45 860 25.4 0.7 33.3 93 -0.3 31.5 1.142 0.045
01:41 1031 30.45 860 25.4 0.7 33.3 93 -0.3 31.4 1.153 0.045
01:42 1031 30.45 860 25.4 0.8 33.4 93 -0.3 31.5 1.188 0.047
01:43 1031 30.45 860 25.4 0.8 33.4 93 -0.3 31.5 1.205 0.047
01:44 1031 30.45 860 25.4 0.8 33.5 92 -0.3 31.5 1.21 0.048
01:45 1031 30.45 860 25.4 0.8 33.5 92 -0.2 31.6 1.233 0.049
01:46 1031 30.45 860 25.4 0.8 33.5 92 -0.3 31.5 1.296 0.051
01:47 1031 30.45 860 25.4 0.9 33.6 92 -0.3 31.5 1.279 0.05
01:48 1031 30.45 860 25.4 0.8 33.5 91 -0.4 31.2 1.235 0.049
01:49 1031 30.45 860 25.4 0.8 33.4 91 -0.6 30.9 1.128 0.044
01:50 1031 30.45 860 25.4 0.7 33.2 92 -0.5 31 1.054 0.041
01:51 1031 30.45 860 25.4 0.6 33.1 91 -0.7 30.8 .987 0.039
01:52 1031 30.45 860 25.4 0.5 32.9 90 -0.9 30.4 .852 0.034
01:53 1031 30.45 860 25.4 0.4 32.7 91 -0.9 30.4 .744 0.029
01:54 1031 30.45 860 25.4 0.3 32.6 92 -0.9 30.4 .677 0.027
01:55 1031 30.45 860 25.4 0.2 32.4 92 -1 30.3 .621 0.024
01:56 1031 30.45 860 25.4 0.1 32.2 93 -0.9 30.4 .581 0.023
01:57 1031 30.45 860 25.4 0.1 32.2 93 -0.9 30.4 .559 0.022
01:58 1031 30.45 860 25.4 0.1 32.2 93 -0.9 30.4 .554 0.022
01:59 1031 30.45 860 25.4 0.1 32.2 93 -0.9 30.4 .542 0.021
02:00 1031 30.45 860 25.4 0.1 32.1 93 -0.9 30.4 .515 0.02
02:01 1031 30.45 860 25.4 0.1 32.1 93 -0.9 30.4 .469 0.018
02:02 1031 30.45 860 25.4 -0 32 93 -1 30.2 .407 0.016
02:03 1031 30.45 860 25.4 -0.1 31.9 93 -1 30.2 .374 0.015
02:04 1031 30.45 860 25.4 -0.2 31.7 93 -1.1 30 .289 0.011
02:05 1031 30.45 860 25.4 -0.2 31.7 94 -1 30.2 .244 0.01
02:06 1031 30.45 860 25.4 -0.1 31.8 95 -0.8 30.5 .323 0.013
02:07 1031 30.45 860 25.4 0 32.1 96 -0.6 30.9 .516 0.02
02:08 1031 30.45 860 25.4 0.2 32.4 95 -0.4 31.2 .657 0.026
02:09 1031 30.45 860 25.4 0.3 32.6 95 -0.4 31.3 .737 0.029
02:10 1031 30.45 860 25.4 0.5 32.8 95 -0.2 31.6 .884 0.035
02:11 1031 30.45 860 25.4 0.6 33.1 95 -0.2 31.7 .997 0.039
02:12 1031 30.45 860 25.4 0.7 33.2 94 -0.2 31.7 1.048 0.041
02:13 1031 30.45 860 25.4 0.7 33.3 94 -0.2 31.7 1.116 0.044
02:14 1031 30.45 860 25.4 0.7 33.3 94 -0.2 31.7 1.15 0.045
02:15 1031 30.45 860 25.4 0.8 33.4 94 -0.2 31.7 1.185 0.047
02:16 1031 30.45 860 25.4 0.8 33.5 93 -0.2 31.7 1.207 0.048
02:17 1031 30.45 860 25.4 0.8 33.4 93 -0.2 31.6 1.185 0.047
02:18 1031 30.45 860 25.4 0.8 33.5 93 -0.1 31.8 1.224 0.048
02:19 1031 30.45 860 25.4 0.8 33.5 93 -0.2 31.7 1.196 0.047
02:20 1031 30.45 860 25.4 0.8 33.4 93 -0.2 31.6 1.168 0.046
02:21 1031 30.45 860 25.4 0.7 33.3 92 -0.4 31.3 1.157 0.046
02:22 1031 30.45 860 25.4 0.7 33.2 92 -0.5 31.2 1.055 0.042
02:23 1031 30.45 860 25.4 0.6 33 93 -0.5 31.1 .97 0.038
02:24 1031 30.45 860 25.4 0.5 33 93 -0.5 31.1 .902 0.036
02:25 1031 30.45 860 25.4 0.5 32.9 93 -0.5 31.1 .936 0.037
02:26 1031 30.45 860 25.4 0.6 33 93 -0.4 31.3 .959 0.038
02:27 1031 30.45 860 25.4 0.6 33 93 -0.4 31.3 1.004 0.04
02:28 1031 30.45 860 25.4 0.6 33.2 93 -0.4 31.3 1.027 0.04
02:29 1031 30.45 860 25.4 0.7 33.2 93 -0.3 31.4 1.044 0.041
02:30 1031 30.45 861 25.43 0.7 33.3 93 -0.3 31.5 1.112 0.044
02:31 1031 30.45 861 25.43 0.8 33.5 93 -0.2 31.6 1.168 0.046
02:32 1031 30.45 861 25.43 0.8 33.4 91 -0.4 31.2 1.18 0.046
02:33 1031 30.45 861 25.43 0.7 33.2 91 -0.6 30.8 1.038 0.041
02:34 1031 30.45 861 25.43 0.6 33 91 -0.7 30.7 .942 0.037
02:35 1031 30.45 861 25.43 0.5 32.9 92 -0.7 30.7 .897 0.035
02:36 1031 30.45 861 25.43 0.4 32.8 91 -0.9 30.4 .789 0.031
02:37 1031 30.45 861 25.43 0.3 32.5 90 -1.2 29.9 .523 0.021
02:38 1032 30.47 861 25.43 0 32.1 91 -1.3 29.7 .336 0.013
02:39 1031 30.45 861 25.43 -0.1 31.9 93 -1.1 30 .28 0.011
02:40 1032 30.47 861 25.43 -0.1 31.8 93 -1.1 30.1 .313 0.012
02:41 1032 30.47 861 25.43 -0 31.9 94 -0.9 30.4 .359 0.014
02:42 1032 30.47 861 25.43 0.1 32.2 94 -0.7 30.7 .466 0.018
02:43 1032 30.47 861 25.43 0.2 32.3 94 -0.6 30.8 .585 0.023
02:44 1032 30.47 861 25.43 0.3 32.5 94 -0.6 31 .636 0.025
02:45 1032 30.47 861 25.43 0.3 32.6 94 -0.5 31.1 .721 0.028
02:46 1032 30.47 861 25.43 0.4 32.8 93 -0.5 31.1 .823 0.032
02:47 1032 30.47 861 25.43 0.5 32.9 93 -0.5 31.1 .789 0.031
02:48 1032 30.47 861 25.43 0.5 32.9 93 -0.6 31 .795 0.031
02:49 1032 30.47 861 25.43 0.5 32.8 92 -0.6 30.9 .795 0.031
02:50 1032 30.47 861 25.43 0.5 32.8 92 -0.7 30.8 .772 0.03
02:51 1032 30.47 861 25.43 0.4 32.7 92 -0.8 30.6 .665 0.026
02:52 1032 30.47 861 25.43 0.3 32.6 92 -0.8 30.6 .636 0.025
02:53 1032 30.47 861 25.43 0.4 32.6 92 -0.7 30.7 .631 0.025
02:54 1032 30.47 861 25.43 0.4 32.7 92 -0.7 30.7 .614 0.024
02:55 1032 30.47 861 25.43 0.3 32.5 92 -0.9 30.4 .551 0.022
02:56 1032 30.47 861 25.43 0.3 32.5 92 -0.9 30.3 .534 0.021
02:57 1032 30.47 861 25.43 0.3 32.5 92 -1 30.3 .495 0.019
02:58 1032 30.47 861 25.43 0.2 32.4 91 -1 30.2 .466 0.018
02:59 1032 30.47 861 25.43 0.2 32.3 92 -1 30.2 .399 0.016
03:00 1032 30.47 861 25.43 0.2 32.3 92 -1 30.2 .432 0.017
03:01 1032 30.47 861 25.43 0.2 32.3 93 -0.9 30.4 .466 0.018
03:02 1032 30.47 861 25.43 0.3 32.5 93 -0.7 30.7 .534 0.021
03:03 1032 30.47 861 25.43 0.4 32.7 91 -0.9 30.4 .585 0.023
03:04 1032 30.47 861 25.43 0.2 32.4 90 -1.3 29.7 .495 0.019
03:05 1032 30.47 861 25.43 0 32.1 90 -1.4 29.6 .319 0.013
03:06 1032 30.47 861 25.43 -0.1 31.9 92 -1.3 29.7 .251 0.01
03:07 1032 30.47 861 25.43 -0.1 31.8 92 -1.3 29.7 .212 0.008
03:08 1032 30.47 861 25.43 -0.2 31.7 91 -1.4 29.5 .155 0.006
03:09 1032 30.47 861 25.43 -0.2 31.7 94 -1.1 30 .115 0.005
03:10 1032 30.47 861 25.43 -0 32 94 -0.9 30.4 .229 0.009
03:11 1032 30.47 861 25.43 0.1 32.2 94 -0.7 30.7 .353 0.014
03:12 1032 30.47 861 25.43 0.2 32.4 94 -0.7 30.8 .489 0.019
03:13 1032 30.47 861 25.43 0.3 32.6 94 -0.6 30.9 .591 0.023
03:14 1032 30.47 861 25.43 0.5 32.9 93 -0.5 31.1 .665 0.026
03:15 1032 30.47 861 25.43 0.6 33 93 -0.5 31.2 .8 0.031
03:16 1032 30.47 861 25.43 0.6 33.1 92 -0.6 31 .834 0.033
03:17 1032 30.47 861 25.43 0.6 33 91 -0.7 30.8 .795 0.031
03:18 1032 30.47 861 25.43 0.5 33 91 -0.7 30.7 .761 0.03
03:19 1032 30.47 861 25.43 0.6 33 92 -0.6 30.9 .778 0.031
03:20 1032 30.47 861 25.43 0.6 33 92 -0.7 30.8 .829 0.033
03:21 1032 30.47 861 25.43 0.6 33 92 -0.6 30.8 .829 0.033
03:22 1032 30.47 861 25.43 0.6 33 91 -0.7 30.7 .819 0.032
03:23 1032 30.47 861 25.43 0.5 32.9 92 -0.7 30.7 .745 0.029
03:24 1032 30.47 861 25.43 0.5 32.9 92 -0.7 30.8 .779 0.031
03:25 1032 30.47 861 25.43 0.5 32.8 92 -0.8 30.6 .717 0.028
03:26 1032 30.47 861 25.43 0.4 32.8 92 -0.7 30.7 .717 0.028
03:27 1032 30.47 861 25.43 0.4 32.8 93 -0.6 30.9 .717 0.028
03:28 1032 30.47 861 25.43 0.5 32.9 93 -0.6 30.9 .711 0.028
03:29 1032 30.47 861 25.43 0.5 32.8 92 -0.7 30.8 .733 0.029
03:30 1032 30.47 861 25.43 0.4 32.7 92 -0.8 30.6 .688 0.027
03:31 1032 30.47 861 25.43 0.3 32.5 92 -0.9 30.5 .614 0.024
03:32 1032 30.47 861 25.43 0.3 32.5 92 -0.9 30.5 .552 0.022
03:33 1032 30.47 861 25.43 0.2 32.4 92 -0.9 30.4 .541 0.021
03:34 1032 30.47 861 25.43 0.1 32.2 92 -1 30.3 .422 0.017
03:35 1032 30.47 861 25.43 0.1 32.2 92 -1 30.2 .393 0.015
03:36 1032 30.47 861 25.43 0 32.1 92 -1.1 30.1 .309 0.012
03:37 1032 30.47 861 25.43 0 32 92 -1.1 30 .281 0.011
03:38 1032 30.47 861 25.43 -0 32 93 -1 30.2 .27 0.011
03:39 1032 30.47 861 25.43 0.1 32.1 94 -0.8 30.6 .378 0.015
03:40 1032 30.47 861 25.43 0.2 32.3 94 -0.7 30.8 .554 0.022
03:41 1032 30.47 861 25.43 0.3 32.5 94 -0.6 30.9 .628 0.025
03:42 1032 30.47 861 25.43 0.4 32.7 94 -0.5 31.1 .707 0.028
03:43 1032 30.47 861 25.43 0.4 32.8 93 -0.6 30.9 .774 0.03
03:44 1032 30.47 861 25.43 0.4 32.8 93 -0.6 30.9 .786 0.031
03:45 1032 30.47 861 25.43 0.4 32.8 93 -0.6 30.9 .797 0.031
03:46 1032 30.47 861 25.43 0.5 32.9 93 -0.5 31 .853 0.034
03:47 1032 30.47 861 25.43 0.6 33.1 93 -0.5 31.1 .899 0.035
03:48 1032 30.47 861 25.43 0.7 33.2 92 -0.5 31.2 1.024 0.04
03:49 1032 30.47 861 25.43 0.8 33.4 92 -0.4 31.3 1.075 0.042
03:50 1032 30.47 861 25.43 0.9 33.7 91 -0.4 31.2 1.149 0.045
03:51 1032 30.47 861 25.43 0.9 33.6 91 -0.5 31.1 1.206 0.047
03:52 1032 30.47 861 25.43 0.9 33.6 91 -0.5 31.1 1.206 0.047
03:53 1032 30.47 861 25.43 0.9 33.6 91 -0.4 31.2 1.178 0.046
03:54 1032 30.47 861 25.43 0.9 33.7 91 -0.3 31.4 1.183 0.047
03:55 1032 30.47 861 25.43 0.9 33.7 91 -0.4 31.4 1.2 0.047
03:56 1032 30.47 861 25.43 0.9 33.7 91 -0.3 31.4 1.194 0.047
03:57 1032 30.47 861 25.43 0.9 33.7 91 -0.3 31.4 1.212 0.048
03:58 1032 30.47 861 25.43 0.9 33.7 91 -0.3 31.4 1.189 0.047
03:59 1032 30.47 861 25.43 0.9 33.7 91 -0.3 31.4 1.223 0.048
04:00 1032 30.47 861 25.43 0.9 33.7 91 -0.3 31.4 1.263 0.05
04:01 1032 30.47 861 25.43 1 33.7 91 -0.3 31.5 1.286 0.051
04:02 1032 30.47 861 25.43 1 33.8 91 -0.3 31.5 1.314 0.052
04:03 1032 30.47 861 25.43 1 33.9 90 -0.4 31.3 1.285 0.051
04:04 1032 30.47 861 25.43 1 33.7 91 -0.4 31.3 1.223 0.048
04:05 1032 30.47 861 25.43 0.9 33.6 91 -0.5 31.2 1.206 0.047
04:06 1032 30.47 861 25.43 0.9 33.6 90 -0.6 31 1.161 0.046
04:07 1032 30.47 861 25.43 0.8 33.4 91 -0.5 31.1 1.116 0.044
04:08 1032 30.47 861 25.43 0.8 33.5 91 -0.5 31 1.116 0.044
04:09 1032 30.47 861 25.43 0.7 33.3 91 -0.6 31 1.049 0.041
04:10 1032 30.47 861 25.43 0.7 33.2 90 -0.8 30.6 .918 0.036
04:11 1032 30.47 861 25.43 0.5 33 89 -1.1 30.1 .8 0.031
04:12 1032 30.47 861 25.43 0.3 32.6 89 -1.2 29.8 .591 0.023
04:13 1032 30.47 861 25.43 0.1 32.3 92 -1 30.1 .483 0.019
04:14 1032 30.47 861 25.43 0.2 32.3 92 -1 30.3 .5 0.02
04:15 1032 30.47 861 25.43 0.2 32.4 93 -0.7 30.7 .619 0.024
04:16 1032 30.47 861 25.43 0.3 32.6 93 -0.7 30.7 .738 0.029
04:17 1032 30.47 861 25.43 0.4 32.8 92 -0.7 30.7 .744 0.029
04:18 1032 30.47 861 25.43 0.5 32.8 92 -0.7 30.7 .784 0.031
04:19 1032 30.47 861 25.43 0.5 32.8 90 -0.9 30.3 .733 0.029
04:20 1032 30.47 861 25.43 0.3 32.6 91 -1 30.2 .619 0.024
04:21 1032 30.47 861 25.43 0.3 32.6 92 -0.8 30.5 .648 0.026
04:22 1032 30.47 861 25.43 0.4 32.7 92 -0.8 30.6 .693 0.027
04:23 1032 30.47 861 25.43 0.4 32.6 92 -0.8 30.6 .682 0.027
04:24 1032 30.47 861 25.43 0.4 32.7 93 -0.6 30.9 .727 0.029
04:25 1032 30.47 861 25.43 0.5 32.9 92 -0.6 30.9 .795 0.031
04:26 1032 30.47 861 25.43 0.4 32.8 92 -0.7 30.7 .744 0.029
04:27 1032 30.47 861 25.43 0.5 32.8 92 -0.7 30.7 .739 0.029
04:28 1032 30.47 861 25.43 0.5 32.9 92 -0.7 30.7 .767 0.03
04:29 1032 30.47 861 25.43 0.5 32.8 92 -0.7 30.7 .722 0.028
04:30 1032 30.47 861 25.43 0.4 32.7 92 -0.8 30.5 .62 0.024
04:31 1032 30.47 861 25.43 0.3 32.6 92 -0.8 30.5 .58 0.023
04:32 1032 30.47 861 25.43 0.3 32.6 92 -0.9 30.4 .597 0.024
04:33 1032 30.47 861 25.43 0.3 32.5 92 -1 30.3 .541 0.021
04:34 1032 30.47 861 25.43 0.2 32.3 91 -1 30.1 .456 0.018
04:35 1032 30.47 861 25.43 0.2 32.3 92 -1 30.2 .439 0.017
04:36 1032 30.47 861 25.43 0.1 32.2 91 -1.1 30 .405 0.016
04:37 1032 30.47 861 25.43 0.1 32.1 93 -1 30.2 .331 0.013
04:38 1032 30.47 861 25.43 -0 32 91 -1.3 29.7 .315 0.012
04:39 1032 30.47 861 25.43 -0.1 31.8 92 -1.3 29.7 .213 0.008
04:40 1032 30.47 861 25.43 -0.2 31.7 92 -1.3 29.6 .162 0.006
04:41 1032 30.47 861 25.43 -0.2 31.6 93 -1.3 29.6 .122 0.005
04:42 1032 30.47 861 25.43 -0.3 31.5 93 -1.3 29.6 .06 0.002
04:43 1032 30.47 861 25.43 -0.4 31.3 92 -1.6 29.2 -.042 -0.002
04:44 1032 30.47 861 25.43 -0.5 31.1 92 -1.6 29.1 -.167 -0.007
04:45 1032 30.47 861 25.43 -0.5 31 93 -1.5 29.3 -.184 -0.007
04:46 1032 30.47 861 25.43 -0.4 31.2 94 -1.3 29.7 -.144 -0.006
04:47 1032 30.47 861 25.43 -0.4 31.4 94 -1.1 29.9 -.116 -0.005
04:48 1032 30.47 861 25.43 -0.3 31.4 94 -1.1 30 -.048 -0.002
04:49 1032 30.47 861 25.43 -0.3 31.4 94 -1.1 30 -.036 -0.001
04:50 1031 30.45 861 25.43 -0.3 31.4 94 -1.2 29.8 -.018 -0.001
04:51 1031 30.45 861 25.43 -0.4 31.3 94 -1.2 29.9 -.069 -0.003
04:52 1031 30.45 861 25.43 -0.4 31.3 95 -1.2 29.9 -.086 -0.003
04:53 1031 30.45 861 25.43 -0.3 31.4 95 -1.1 30.1 -.096 -0.004
04:54 1031 30.45 861 25.43 -0.3 31.4 95 -1.1 30 -.079 -0.003
04:55 1031 30.45 861 25.43 -0.3 31.4 95 -1.1 30 -.051 -0.002
04:56 1031 30.45 861 25.43 -0.3 31.4 94 -1.1 30 -.005 -0
04:57 1032 30.47 861 25.43 -0.4 31.3 94 -1.2 29.8 -.095 -0.004
04:58 1032 30.47 861 25.43 -0.4 31.3 95 -1.2 29.9 -.146 -0.006
04:59 1032 30.47 861 25.43 -0.4 31.4 96 -1 30.2 -.032 -0.001
05:00 1032 30.47 861 25.43 -0.2 31.7 96 -0.8 30.6 .194 0.008
05:01 1032 30.47 861 25.43 0 32.1 96 -0.5 31 .393 0.015
05:02 1032 30.47 861 25.43 0.3 32.5 96 -0.4 31.4 .614 0.024
05:03 1032 30.47 861 25.43 0.4 32.7 95 -0.4 31.3 .704 0.028
05:04 1032 30.47 861 25.43 0.4 32.7 94 -0.5 31.1 .738 0.029
05:05 1032 30.47 861 25.43 0.4 32.7 92 -0.7 30.7 .699 0.028
05:06 1032 30.47 861 25.43 0.3 32.5 92 -0.9 30.3 .597 0.024
05:07 1032 30.47 861 25.43 0.2 32.4 92 -1 30.2 .45 0.018
05:08 1032 30.47 861 25.43 0.1 32.1 92 -1.1 30.1 .382 0.015
05:09 1032 30.47 861 25.43 0.1 32.2 93 -0.8 30.5 .388 0.015
05:10 1032 30.47 861 25.43 0.3 32.5 92 -0.9 30.4 .49 0.019
05:11 1032 30.47 861 25.43 0.2 32.4 91 -1.1 30 .451 0.018
05:12 1032 30.47 861 25.43 0.2 32.3 90 -1.2 29.8 .36 0.014
05:13 1032 30.47 861 25.43 0.1 32.2 90 -1.3 29.7 .343 0.014
05:14 1032 30.47 861 25.43 0 32 90 -1.5 29.3 .241 0.009
05:15 1032 30.47 861 25.43 -0.1 31.8 88 -1.9 28.7 .06 0.002
05:16 1032 30.47 861 25.43 -0.5 31.2 86 -2.5 27.4 -.262 -0.01
05:17 1032 30.47 861 25.43 -0.8 30.5 88 -2.6 27.4 -.614 -0.024
05:18 1032 30.47 861 25.43 -1.1 30.1 91 -2.4 27.7 -.744 -0.029
05:19 1032 30.47 861 25.43 -1.2 29.9 92 -2.3 27.9 -.789 -0.031
05:20 1032 30.47 861 25.43 -1 30.2 95 -1.7 28.9 -.664 -0.026
05:21 1032 30.47 861 25.43 -0.7 30.7 95 -1.4 29.5 -.398 -0.016
05:22 1032 30.47 861 25.43 -0.6 30.9 94 -1.4 29.4 -.268 -0.011
05:23 1032 30.47 861 25.43 -0.5 31 93 -1.6 29.2 -.251 -0.01
05:24 1032 30.47 861 25.43 -0.5 31.1 92 -1.7 28.9 -.279 -0.011
05:25 1032 30.47 861 25.43 -0.6 30.9 91 -1.9 28.6 -.409 -0.016
05:26 1032 30.47 861 25.43 -0.7 30.8 92 -1.9 28.6 -.443 -0.017
05:27 1032 30.47 861 25.43 -0.7 30.8 92 -1.9 28.6 -.426 -0.017
05:28 1032 30.47 861 25.43 -0.7 30.7 91 -2 28.5 -.443 -0.017
05:29 1032 30.47 861 25.43 -0.8 30.6 91 -2.1 28.2 -.5 -0.02
05:30 1032 30.47 861 25.43 -0.8 30.6 91 -2.1 28.2 -.568 -0.022
05:31 1032 30.47 861 25.43 -0.8 30.6 93 -1.8 28.8 -.511 -0.02
05:32 1032 30.47 861 25.43 -0.6 30.9 93 -1.6 29.1 -.364 -0.014
05:33 1032 30.47 861 25.43 -0.5 31.1 92 -1.6 29.1 -.228 -0.009
05:34 1032 30.47 861 25.43 -0.4 31.3 91 -1.7 29 -.171 -0.007
05:35 1032 30.47 861 25.43 -0.4 31.3 90 -1.8 28.8 -.166 -0.007
05:36 1032 30.47 861 25.43 -0.4 31.3 92 -1.5 29.3 -.132 -0.005
05:37 1032 30.47 861 25.43 -0.3 31.5 92 -1.4 29.4 -.018 -0.001
05:38 1032 30.47 861 25.43 -0.2 31.6 91 -1.5 29.3 .05 0.002
05:39 1032 30.47 861 25.43 -0.2 31.6 91 -1.5 29.4 .089 0.004
05:40 1032 30.47 861 25.43 -0.1 31.8 91 -1.4 29.5 .203 0.008
05:41 1032 30.47 861 25.43 -0.1 31.9 91 -1.4 29.5 .248 0.01
05:42 1032 30.47 861 25.43 -0 31.9 91 -1.3 29.7 .293 0.012
05:43 1032 30.47 861 25.43 0.1 32.1 91 -1.2 29.9 .463 0.018
05:44 1032 30.47 861 25.43 0.2 32.3 91 -1.1 30 .588 0.023
05:45 1032 30.47 861 25.43 0.4 32.6 91 -1 30.2 .65 0.026
05:46 1032 30.47 861 25.43 0.5 32.9 90 -1 30.2 .769 0.03
05:47 1032 30.47 861 25.43 0.6 33.1 90 -0.9 30.5 .826 0.033
05:48 1032 30.47 861 25.43 0.8 33.4 89 -0.8 30.5 .973 0.038
05:49 1032 30.47 861 25.43 0.9 33.6 90 -0.6 30.9 1.075 0.042
05:50 1032 30.47 861 25.43 1 33.8 89 -0.7 30.8 1.216 0.048
05:51 1032 30.47 861 25.43 1.1 33.9 88 -0.8 30.6 1.301 0.051
05:52 1032 30.47 861 25.43 1 33.8 86 -1.1 30.1 1.245 0.049
05:53 1032 30.47 861 25.43 0.8 33.5 86 -1.3 29.7 1.001 0.039
05:54 1032 30.47 861 25.43 0.7 33.2 87 -1.3 29.7 .905 0.036
05:55 1032 30.47 861 25.43 0.5 32.9 87 -1.3 29.6 .78 0.031
05:56 1032 30.47 861 25.43 0.5 32.8 89 -1.2 29.8 .712 0.028
05:57 1032 30.47 861 25.43 0.4 32.7 88 -1.3 29.6 .673 0.026
05:58 1032 30.47 861 25.43 0.4 32.7 88 -1.3 29.6 .605 0.024
05:59 1032 30.47 861 25.43 0.3 32.6 89 -1.3 29.6 .633 0.025
06:00 1032 30.47 861 25.43 0.3 32.5 88 -1.4 29.4 .588 0.023
06:01 1032 30.47 861 25.43 0.2 32.4 87 -1.6 29 .48 0.019
06:02 1032 30.47 861 25.43 0 32.1 87 -1.9 28.7 .35 0.014
06:03 1032 30.47 861 25.43 -0.1 31.8 88 -1.9 28.5 .191 0.008
06:04 1032 30.47 861 25.43 -0.3 31.5 86 -2.3 27.8 .016 0.001
06:05 1032 30.47 861 25.43 -0.5 31 87 -2.5 27.6 -.205 -0.008
06:06 1032 30.47 861 25.43 -0.8 30.6 90 -2.3 27.9 -.426 -0.017
06:07 1032 30.47 861 25.43 -0.7 30.7 92 -1.8 28.7 -.398 -0.016
06:08 1032 30.47 861 25.43 -0.5 31.1 93 -1.5 29.2 -.199 -0.008
06:09 1032 30.47 861 25.43 -0.3 31.5 93 -1.3 29.7 .027 0.001
06:10 1032 30.47 861 25.43 -0.1 31.9 92 -1.2 29.9 .259 0.01
06:11 1032 30.47 861 25.43 0.1 32.2 92 -1.1 30.1 .435 0.017
06:12 1032 30.47 861 25.43 0.3 32.5 91 -1.1 30 .605 0.024
06:13 1032 30.47 861 25.43 0.3 32.5 89 -1.4 29.6 .582 0.023
06:14 1032 30.47 861 25.43 0.1 32.2 87 -1.8 28.8 .339 0.013
06:15 1032 30.47 861 25.43 -0 32 89 -1.5 29.2 .265 0.01
06:16 1032 30.47 861 25.43 -0 31.9 89 -1.6 29.1 .22 0.009
06:17 1032 30.47 861 25.43 -0.1 31.8 90 -1.6 29.1 .14 0.006
06:18 1032 30.47 861 25.43 -0.1 31.8 91 -1.4 29.4 .14 0.006
06:19 1032 30.47 861 25.43 -0 32 91 -1.3 29.6 .203 0.008
06:20 1032 30.47 861 25.43 -0 31.9 89 -1.6 29.2 .214 0.008
06:21 1032 30.47 862 25.45 -0.1 31.8 91 -1.4 29.4 .123 0.005
06:22 1032 30.47 861 25.43 -0.1 31.8 89 -1.7 29 .152 0.006
06:23 1032 30.47 861 25.43 -0.2 31.7 90 -1.6 29.2 .055 0.002
06:24 1032 30.47 861 25.43 -0.2 31.6 90 -1.7 28.9 .05 0.002
06:25 1032 30.47 861 25.43 -0.4 31.3 89 -2 28.3 -.086 -0.003
06:26 1032 30.47 861 25.43 -0.6 31 89 -2.2 28 -.284 -0.011
06:27 1032 30.47 861 25.43 -0.7 30.7 88 -2.4 27.6 -.494 -0.019
06:28 1032 30.47 861 25.43 -1 30.3 89 -2.6 27.3 -.698 -0.027
06:29 1032 30.47 862 25.45 -1.2 29.9 90 -2.7 27.2 -.862 -0.034
06:30 1032 30.47 862 25.45 -1.3 29.6 89 -2.8 26.9 -.992 -0.039
06:31 1032 30.47 862 25.45 -1.5 29.3 90 -2.9 26.8 -1.196 -0.047
06:32 1032 30.47 862 25.45 -1.7 29 90 -3 26.5 -1.332 -0.052
06:33 1032 30.47 862 25.45 -1.7 28.9 92 -2.9 26.8 -1.434 -0.056
06:34 1032 30.47 862 25.45 -1.8 28.8 92 -2.9 26.8 -1.457 -0.057
06:35 1032 30.47 862 25.45 -1.8 28.7 92 -3 26.5 -1.53 -0.06
06:36 1032 30.47 862 25.45 -1.9 28.6 93 -3 26.7 -1.615 -0.064
06:37 1032 30.47 862 25.45 -1.8 28.8 94 -2.6 27.3 -1.53 -0.06
06:38 1032 30.47 862 25.45 -1.6 29.1 95 -2.4 27.8 -1.343 -0.053
06:39 1032 30.47 862 25.45 -1.4 29.5 94 -2.2 28.1 -1.145 -0.045
06:40 1032 30.47 862 25.45 -1.2 29.8 94 -2.1 28.2 -1.015 -0.04
06:41 1032 30.47 862 25.45 -1 30.1 94 -1.8 28.7 -.845 -0.033
06:42 1032 30.47 862 25.45 -0.8 30.5 94 -1.6 29.1 -.59 -0.023
06:43 1032 30.47 862 25.45 -0.7 30.8 90 -2.1 28.3 -.522 -0.021
06:44 1032 30.47 862 25.45 -0.9 30.5 91 -2.1 28.2 -.686 -0.027
06:45 1032 30.47 862 25.45 -0.8 30.5 92 -2 28.3 -.657 -0.026
06:46 1032 30.47 862 25.45 -0.9 30.3 89 -2.5 27.5 -.77 -0.03
06:47 1032 30.47 862 25.45 -1.1 30 91 -2.4 27.6 -.905 -0.036
06:48 1032 30.47 862 25.45 -1.1 30.1 92 -2.2 28 -.854 -0.034
06:49 1032 30.47 862 25.45 -1.1 30.1 90 -2.5 27.6 -.814 -0.032
06:50 1032 30.47 862 25.45 -1.2 29.8 89 -2.8 27 -.938 -0.037
06:51 1032 30.47 862 25.45 -1.5 29.4 89 -3 26.6 -1.091 -0.043
06:52 1032 30.47 862 25.45 -1.6 29 90 -3.1 26.4 -1.312 -0.052
06:53 1032 30.47 862 25.45 -1.8 28.7 90 -3.3 26.1 -1.47 -0.058
06:54 1032 30.47 862 25.45 -1.9 28.6 92 -2.9 26.7 -1.521 -0.06
06:55 1032 30.47 862 25.45 -1.8 28.8 93 -2.8 26.9 -1.453 -0.057
06:56 1032 30.47 862 25.45 -1.9 28.6 91 -3.1 26.4 -1.532 -0.06
06:57 1032 30.47 862 25.45 -2 28.3 91 -3.3 26.1 -1.69 -0.067
06:58 1032 30.47 862 25.45 -2.2 28 91 -3.5 25.7 -1.837 -0.072
06:59 1032 30.47 862 25.45 -2.3 27.8 92 -3.5 25.7 -1.945 -0.077
07:00 1032 30.47 862 25.45 -2.3 27.8 92 -3.4 25.9 -1.95 -0.077
07:01 1033 30.5 862 25.45 -2.4 27.7 92 -3.5 25.7 -1.99 -0.078
07:02 1033 30.5 862 25.45 -2.4 27.7 93 -3.4 25.8 -2.024 -0.08
07:03 1033 30.5 862 25.45 -2.4 27.8 94 -3.2 26.2 -1.989 -0.078
07:04 1033 30.5 862 25.45 -2.3 28 94 -3.1 26.4 -1.905 -0.075
07:05 1033 30.5 862 25.45 -2.2 28.1 94 -3 26.7 -1.836 -0.072
07:06 1033 30.5 862 25.45 -2 28.4 94 -2.8 27 -1.751 -0.069
07:07 1033 30.5 862 25.45 -1.8 28.7 94 -2.7 27.2 -1.581 -0.062
07:08 1033 30.5 862 25.45 -1.8 28.7 92 -3 26.6 -1.598 -0.063
07:09 1033 30.5 862 25.45 -1.9 28.6 93 -2.9 26.8 -1.649 -0.065
07:10 1033 30.5 862 25.45 -1.9 28.6 92 -3 26.6 -1.638 -0.064
07:11 1033 30.5 862 25.45 -1.9 28.6 93 -3 26.7 -1.677 -0.066
07:12 1033 30.5 862 25.45 -1.9 28.6 93 -2.9 26.8 -1.632 -0.064
07:13 1033 30.5 862 25.45 -1.9 28.6 93 -2.9 26.9 -1.575 -0.062
07:14 1033 30.5 862 25.45 -1.8 28.7 93 -2.8 27 -1.547 -0.061
07:15 1033 30.5 862 25.45 -1.8 28.8 93 -2.8 27 -1.507 -0.059
07:16 1033 30.5 862 25.45 -1.7 28.9 93 -2.7 27.1 -1.439 -0.057
07:17 1033 30.5 862 25.45 -1.7 28.9 92 -2.9 26.8 -1.456 -0.057
07:18 1033 30.5 862 25.45 -1.9 28.7 91 -3.1 26.4 -1.547 -0.061
07:19 1033 30.5 862 25.45 -2 28.4 91 -3.3 26.1 -1.694 -0.067
07:20 1033 30.5 862 25.45 -2.1 28.3 92 -3.2 26.2 -1.728 -0.068
07:21 1033 30.5 862 25.45 -2.2 28.1 91 -3.5 25.8 -1.887 -0.074
07:22 1033 30.5 862 25.45 -2.3 27.9 91 -3.5 25.7 -2 -0.079
07:23 1033 30.5 862 25.45 -2.4 27.7 93 -3.3 26 -2.028 -0.08
07:24 1033 30.5 862 25.45 -2.2 28 94 -3 26.5 -1.971 -0.078
07:25 1033 30.5 862 25.45 -2.1 28.2 94 -3 26.6 -1.857 -0.073
07:26 1033 30.5 862 25.45 -2.2 28.1 93 -3.1 26.4 -1.879 -0.074
07:27 1033 30.5 862 25.45 -2.1 28.2 93 -3.1 26.5 -1.857 -0.073
07:28 1033 30.5 862 25.45 -2.1 28.3 93 -3 26.5 -1.823 -0.072
07:29 1033 30.5 862 25.45 -2.1 28.1 92 -3.3 26.1 -1.868 -0.074
07:30 1033 30.5 862 25.45 -2.2 28 92 -3.4 25.9 -1.959 -0.077
07:31 1033 30.5 862 25.45 -2.3 27.8 92 -3.4 25.9 -2.015 -0.079
07:32 1033 30.5 862 25.45 -2.4 27.7 92 -3.5 25.8 -2.065 -0.081
07:33 1033 30.5 862 25.45 -2.4 27.7 93 -3.4 25.9 -2.077 -0.082
07:34 1033 30.5 862 25.45 -2.4 27.7 93 -3.3 26 -2.054 -0.081
07:35 1033 30.5 862 25.45 -2.3 27.8 94 -3.2 26.3 -2.026 -0.08
07:36 1033 30.5 862 25.45 -2.2 28 94 -3.1 26.5 -1.902 -0.075
07:37 1033 30.5 862 25.45 -2.1 28.2 94 -3 26.6 -1.788 -0.07
07:38 1033 30.5 862 25.45 -2.1 28.3 94 -3 26.7 -1.719 -0.068
07:39 1033 30.5 862 25.45 -2 28.4 93 -3 26.6 -1.719 -0.068
07:40 1033 30.5 862 25.45 -2 28.4 93 -2.9 26.7 -1.685 -0.066
07:41 1033 30.5 862 25.45 -2 28.4 93 -3 26.6 -1.679 -0.066
07:42 1033 30.5 862 25.45 -2 28.3 93 -3.1 26.4 -1.764 -0.069
07:43 1033 30.5 862 25.45 -2 28.3 94 -2.9 26.7 -1.724 -0.068
07:44 1033 30.5 862 25.45 -1.9 28.6 95 -2.7 27.2 -1.548 -0.061
07:45 1033 30.5 862 25.45 -1.8 28.8 94 -2.6 27.3 -1.418 -0.056
07:46 1033 30.5 862 25.45 -1.7 29 92 -2.7 27.1 -1.372 -0.054
07:47 1033 30.5 862 25.45 -1.7 29 92 -2.9 26.8 -1.4 -0.055
07:48 1033 30.5 862 25.45 -1.8 28.8 91 -3 26.6 -1.412 -0.056
07:49 1033 30.5 862 25.45 -1.7 28.9 91 -3 26.7 -1.445 -0.057
07:50 1033 30.5 862 25.45 -1.8 28.8 91 -3 26.6 -1.422 -0.056
07:51 1033 30.5 862 25.45 -1.8 28.8 92 -3 26.6 -1.332 -0.052
07:52 1033 30.5 862 25.45 -1.7 29 92 -2.8 27 -1.258 -0.05
07:53 1033 30.5 862 25.45 -1.5 29.3 93 -2.5 27.4 -1.145 -0.045
07:54 1033 30.5 862 25.45 -1.3 29.6 93 -2.3 27.9 -.963 -0.038
07:55 1033 30.5 862 25.45 -1.1 30 93 -2 28.3 -.731 -0.029
07:56 1033 30.5 862 25.45 -0.8 30.5 94 -1.7 28.9 -.538 -0.021
07:57 1033 30.5 862 25.45 -0.5 31.1 93 -1.5 29.3 -.289 -0.011
07:58 1033 30.5 862 25.45 -0.3 31.5 92 -1.4 29.4 -.011 -0
07:59 1033 30.5 862 25.45 -0 31.9 90 -1.4 29.4 .182 0.007
08:00 1033 30.5 862 25.45 0.1 32.2 90 -1.4 29.5 .306 0.012
08:01 1033 30.5 862 25.45 0.3 32.5 89 -1.3 29.6 .454 0.018
08:02 1033 30.5 862 25.45 0.4 32.8 88 -1.3 29.6 .618 0.024
08:03 1033 30.5 862 25.45 0.5 33 87 -1.3 29.6 .709 0.028
08:04 1033 30.5 862 25.45 0.6 33.1 87 -1.3 29.6 .743 0.029
08:05 1033 30.5 862 25.45 0.7 33.2 87 -1.3 29.6 .845 0.033
08:06 1033 30.5 862 25.45 0.6 33.2 87 -1.3 29.7 .85 0.033
08:07 1033 30.5 862 25.45 0.7 33.3 87 -1.3 29.7 .924 0.036
08:08 1033 30.5 862 25.45 0.8 33.4 87 -1.2 29.8 .952 0.037
08:09 1033 30.5 862 25.45 0.8 33.5 86 -1.2 29.9 1.048 0.041
08:10 1033 30.5 862 25.45 0.9 33.6 87 -1.1 30 1.104 0.043
08:11 1033 30.5 862 25.45 0.9 33.7 87 -1.1 30.1 1.178 0.046
08:12 1033 30.5 862 25.45 0.9 33.7 86 -1.1 30 1.205 0.047
08:13 1033 30.5 862 25.45 1 33.7 87 -1 30.2 1.182 0.047
08:14 1033 30.5 862 25.45 1 33.8 87 -0.9 30.3 1.25 0.049
08:15 1033 30.5 862 25.45 1 33.9 87 -0.9 30.5 1.346 0.053
08:16 1033 30.5 862 25.45 1.1 34 87 -0.8 30.6 1.351 0.053
08:17 1033 30.5 862 25.45 1.2 34.1 87 -0.7 30.7 1.414 0.056
08:18 1033 30.5 862 25.45 1.2 34.2 87 -0.7 30.8 1.476 0.058
08:19 1033 30.5 862 25.45 1.3 34.4 87 -0.6 31 1.628 0.064
08:20 1033 30.5 862 25.45 1.4 34.6 88 -0.4 31.3 1.662 0.065
08:21 1033 30.5 862 25.45 1.6 34.8 87 -0.4 31.4 1.774 0.07
08:22 1033 30.5 862 25.45 1.6 34.9 88 -0.2 31.6 1.83 0.072
08:23 1033 30.5 862 25.45 1.7 35.1 88 -0.1 31.8 2 0.079
08:24 1033 30.5 862 25.45 1.9 35.4 87 -0 32 2.101 0.083
08:25 1033 30.5 862 25.45 2 35.6 87 0.1 32.1 2.236 0.088
08:26 1033 30.5 862 25.45 2.2 35.9 87 0.3 32.6 2.412 0.095
08:27 1033 30.5 862 25.45 2.3 36.2 87 0.4 32.6 2.587 0.102
08:28 1033 30.5 862 25.45 2.5 36.4 86 0.4 32.7 2.694 0.106
08:29 1033 30.5 862 25.45 2.6 36.7 85 0.3 32.5 2.853 0.112
08:30 1033 30.5 862 25.45 2.7 36.8 85 0.3 32.6 2.954 0.116
08:31 1033 30.5 862 25.45 2.8 37 84 0.3 32.6 3.101 0.122
08:32 1033 30.5 862 25.45 2.9 37.3 83 0.4 32.8 3.225 0.127
08:33 1033 30.5 862 25.45 3.1 37.6 82 0.4 32.7 3.394 0.134
08:34 1033 30.5 862 25.45 3.2 37.8 82 0.5 32.9 3.553 0.14
08:35 1033 30.5 862 25.45 3.4 38.1 82 0.6 33 3.695 0.145
08:36 1033 30.5 862 25.45 3.5 38.3 81 0.6 33.1 3.836 0.151
08:37 1033 30.5 862 25.45 3.7 38.6 82 0.9 33.6 4.005 0.158
08:38 1033 30.5 862 25.45 3.8 38.9 82 1 33.8 4.192 0.165
08:39 1033 30.5 862 25.45 4 39.2 82 1.1 34 4.299 0.169
08:40 1033 30.5 862 25.45 4.1 39.4 78 0.5 32.9 4.413 0.174
08:41 1033 30.5 862 25.45 4.2 39.6 80 1 33.8 4.543 0.179
08:42 1033 30.5 862 25.45 4.4 39.9 79 1.1 33.9 4.683 0.184
08:43 1033 30.5 862 25.45 4.5 40.2 77 0.8 33.5 4.909 0.193
08:44 1033 30.5 862 25.45 4.7 40.4 78 1.2 34.2 5.033 0.198
08:45 1033 30.5 862 25.45 4.8 40.7 76 0.9 33.7 5.185 0.204
08:46 1033 30.5 862 25.45 5 41 78 1.5 34.7 5.394 0.212
08:47 1033 30.5 862 25.45 5.2 41.4 77 1.4 34.6 5.615 0.221
08:48 1033 30.5 862 25.45 5.3 41.6 72 0.7 33.3 5.676 0.223
08:49 1033 30.5 862 25.45 5.5 41.8 72 0.9 33.6 5.761 0.227
08:50 1033 30.5 862 25.45 5.5 42 74 1.3 34.3 5.834 0.23
08:51 1033 30.5 862 25.45 5.6 42.1 74 1.4 34.6 5.991 0.236
08:52 1033 30.5 862 25.45 5.8 42.5 74 1.6 34.9 6.166 0.243
08:53 1033 30.5 862 25.45 6 42.8 73 1.6 34.9 6.375 0.251
08:54 1033 30.5 862 25.45 6.2 43.1 75 2.1 35.8 6.595 0.26
08:55 1033 30.5 862 25.45 6.4 43.5 73 1.9 35.4 6.804 0.268
08:56 1033 30.5 862 25.45 6.5 43.6 73 1.9 35.5 6.854 0.27
08:57 1033 30.5 862 25.45 6.6 43.8 74 2.3 36.2 6.893 0.271
08:58 1033 30.5 862 25.45 6.7 44.1 71 1.8 35.3 7 0.276
08:59 1033 30.5 862 25.45 6.8 44.3 69 1.6 34.9 7.1 0.28
09:00 1033 30.5 862 25.45 6.9 44.4 67 1.2 34.2 7.21 0.284
09:01 1033 30.5 862 25.45 7.1 44.7 66 1.2 34.1 7.38 0.291
09:02 1033 30.5 862 25.45 7.2 45 68 1.7 35.1 7.57 0.298
09:03 1033 30.5 862 25.45 7.4 45.4 68 1.9 35.4 7.68 0.302
09:04 1033 30.5 862 25.45 7.5 45.5 65 1.4 34.5 7.85 0.309
09:05 1033 30.5 862 25.45 7.6 45.6 64 1.3 34.3 7.91 0.311
09:06 1033 30.5 862 25.45 7.7 45.8 67 1.9 35.4 7.96 0.313
09:07 1033 30.5 862 25.45 7.7 45.8 61 0.7 33.3 7.96 0.313
09:08 1033 30.5 862 25.45 7.7 45.9 65 1.5 34.7 8.05 0.317
09:09 1033 30.5 862 25.45 7.7 45.8 62 0.9 33.7 8.14 0.32
09:10 1033 30.5 862 25.45 7.7 45.9 63 1 33.9 8.14 0.32
09:11 1033 30.5 862 25.45 7.8 46.1 67 2 35.6 8.15 0.321
09:12 1033 30.5 862 25.45 7.9 46.2 62 1 33.8 8.16 0.321
09:13 1033 30.5 862 25.45 7.9 46.2 62 1 33.8 8.03 0.316
09:14 1033 30.5 862 25.45 7.7 45.8 64 1.3 34.4 7.73 0.304
09:15 1033 30.5 862 25.45 7.5 45.5 67 1.7 35.1 7.62 0.3
09:16 1033 30.5 862 25.45 7.5 45.5 69 2.2 35.9 7.69 0.303
09:17 1033 30.5 862 25.45 7.6 45.7 63 1.1 34 7.78 0.306
09:18 1033 30.5 862 25.45 7.6 45.6 67 1.9 35.4 7.72 0.304
09:19 1033 30.5 862 25.45 7.6 45.8 64 1.3 34.3 7.84 0.309
09:20 1033 30.5 862 25.45 7.7 45.9 65 1.5 34.7 7.99 0.315
09:21 1033 30.5 862 25.45 7.8 46 64 1.3 34.4 8.06 0.317
09:22 1033 30.5 862 25.45 7.8 46.1 63 1.3 34.4 8.12 0.32
09:23 1033 30.5 862 25.45 8 46.4 65 1.8 35.2 8.31 0.327
09:24 1033 30.5 862 25.45 8.1 46.7 64 1.8 35.3 8.37 0.33
09:25 1033 30.5 862 25.45 8.3 46.9 64 1.8 35.3 8.35 0.329
09:26 1033 30.5 862 25.45 8.4 47.1 65 2.3 36.1 8.51 0.335
09:27 1033 30.5 862 25.45 8.6 47.4 62 1.7 35.1 8.74 0.344
09:28 1033 30.5 862 25.45 8.6 47.5 61 1.5 34.7 8.84 0.348
09:29 1033 30.5 862 25.45 8.5 47.4 58 0.8 33.5 8.77 0.345
09:30 1033 30.5 862 25.45 8.4 47.1 55 -0.2 31.6 8.67 0.341
09:31 1033 30.5 862 25.45 8.3 46.9 57 0.4 32.7 8.55 0.337
09:32 1033 30.5 862 25.45 8.2 46.8 58 0.6 33 8.5 0.335
09:33 1033 30.5 862 25.45 8.1 46.6 59 0.7 33.3 8.44 0.332
09:34 1033 30.5 862 25.45 8.2 46.7 62 1.2 34.2 8.49 0.334
09:35 1033 30.5 862 25.45 8.2 46.8 61 1.1 33.9 8.58 0.338
09:36 1033 30.5 862 25.45 8.2 46.7 59 0.8 33.4 8.56 0.337
09:37 1033 30.5 862 25.45 8.3 46.9 58 0.4 32.8 8.58 0.338
09:38 1033 30.5 862 25.45 8.2 46.8 58 0.5 32.9 8.55 0.337
09:39 1033 30.5 862 25.45 8.2 46.8 57 0.3 32.6 8.54 0.336
09:40 1033 30.5 862 25.45 8.2 46.8 60 1 33.8 8.53 0.336
09:41 1033 30.5 862 25.45 8.3 47 55 -0.1 31.7 8.66 0.341
09:42 1033 30.5 862 25.45 8.4 47 61 1.3 34.4 8.67 0.341
09:43 1033 30.5 862 25.45 8.4 47.2 56 0.1 32.2 8.79 0.346
09:44 1033 30.5 862 25.45 8.5 47.2 55 0 32.1 8.78 0.346
09:45 1033 30.5 862 25.45 8.5 47.2 61 1.4 34.5 8.81 0.347
09:46 1033 30.5 862 25.45 8.5 47.3 57 0.6 33.1 8.87 0.349
09:47 1033 30.5 862 25.45 8.6 47.4 58 0.9 33.7 8.91 0.351
09:48 1033 30.5 862 25.45 8.6 47.5 55 0.2 32.4 8.99 0.354
09:49 1033 30.5 862 25.45 8.7 47.6 53 -0.5 31.1 8.97 0.353
09:50 1033 30.5 862 25.45 8.6 47.5 50 -1.2 29.9 8.94 0.352
09:51 1033 30.5 862 25.45 8.6 47.4 53 -0.5 31.2 8.91 0.351
09:52 1033 30.5 862 25.45 8.6 47.5 54 -0.2 31.6 8.96 0.353
09:53 1033 30.5 862 25.45 8.6 47.5 58 0.9 33.6 8.98 0.354
09:54 1033 30.5 862 25.45 8.7 47.6 56 0.4 32.6 9.04 0.356
09:55 1033 30.5 862 25.45 8.7 47.6 56 0.5 32.9 9.01 0.355
09:56 1033 30.5 862 25.45 8.6 47.6 51 -0.9 30.4 9.01 0.355
09:57 1033 30.5 862 25.45 8.6 47.5 54 -0.2 31.7 8.96 0.353
09:58 1033 30.5 862 25.45 8.7 47.6 50 -1.1 30.1 9 0.354
09:59 1033 30.5 862 25.45 8.7 47.6 58 0.8 33.5 9.02 0.355
10:00 1033 30.5 862 25.45 8.7 47.7 53 -0.3 31.5 9.09 0.358
10:01 1033 30.5 862 25.45 8.7 47.6 54 -0.1 31.8 9.04 0.356
10:02 1033 30.5 862 25.45 8.8 47.8 53 -0.3 31.5 9.17 0.361
10:03 1033 30.5 862 25.45 8.9 48 51 -0.6 30.8 9.2 0.362
10:04 1033 30.5 862 25.45 8.9 48.1 52 -0.4 31.2 9.25 0.364
10:05 1033 30.5 862 25.45 9 48.2 51 -0.5 31.1 9.32 0.367
10:06 1033 30.5 862 25.45 9.1 48.3 54 0.2 32.4 9.43 0.371
10:07 1033 30.5 862 25.45 9.1 48.4 49 -1 30.1 9.46 0.372
10:08 1033 30.5 862 25.45 9.1 48.3 49 -1.1 30.1 9.4 0.37
10:09 1033 30.5 862 25.45 9 48.1 53 0.1 32.1 9.33 0.367
10:10 1033 30.5 862 25.45 9 48.2 51 -0.5 31.1 9.32 0.367
10:11 1033 30.5 862 25.45 9 48.2 50 -1 30.3 9.33 0.367
10:12 1033 30.5 862 25.45 8.9 48.1 55 0.4 32.7 9.32 0.367
10:13 1033 30.5 862 25.45 9.1 48.4 50 -0.7 30.8 9.43 0.371
10:14 1033 30.5 862 25.45 9.1 48.4 49 -0.9 30.4 9.46 0.372
10:15 1033 30.5 862 25.45 9.1 48.3 51 -0.6 30.9 9.46 0.372
10:16 1033 30.5 862 25.45 9 48.3 53 0.1 32.2 9.4 0.37
10:17 1033 30.5 862 25.45 9.1 48.3 48 -1.2 29.8 9.44 0.372
10:18 1033 30.5 862 25.45 9 48.2 52 -0.3 31.5 9.42 0.371
10:19 1033 30.5 862 25.45 9 48.3 50 -0.9 30.3 9.43 0.371
10:20 1033 30.5 862 25.45 9 48.3 48 -1.2 29.8 9.42 0.371
10:21 1033 30.5 862 25.45 9.1 48.3 48 -1.2 29.8 9.46 0.372
10:22 1033 30.5 862 25.45 9.2 48.6 48 -1.2 29.8 9.57 0.377
10:23 1033 30.5 862 25.45 9.3 48.8 47 -1.3 29.7 9.68 0.381
10:24 1033 30.5 862 25.45 9.5 49.1 47 -1.1 30.1 9.86 0.388
10:25 1033 30.5 862 25.45 9.6 49.3 51 -0.1 31.8 10.01 0.394
10:26 1033 30.5 862 25.45 9.7 49.5 50 -0.1 31.8 10.16 0.4
10:27 1033 30.5 862 25.45 9.8 49.6 52 0.3 32.6 10.23 0.403
10:28 1033 30.5 862 25.45 9.8 49.7 49 -0.2 31.6 10.23 0.403
10:29 1033 30.5 862 25.45 9.8 49.7 47 -1 30.2 10.18 0.401
10:30 1033 30.5 862 25.45 9.7 49.5 50 -0.1 31.8 10.08 0.397
10:31 1033 30.5 862 25.45 9.8 49.6 50 -0.2 31.7 10.14 0.399
10:32 1033 30.5 862 25.45 9.8 49.7 48 -0.8 30.6 10.16 0.4
10:33 1033 30.5 862 25.45 9.7 49.5 49 -0.4 31.3 10.06 0.396
10:34 1033 30.5 862 25.45 9.7 49.5 52 0.3 32.5 10.08 0.397
10:35 1033 30.5 862 25.45 9.7 49.5 48 -0.8 30.5 10.14 0.399
10:36 1033 30.5 862 25.45 9.8 49.6 52 0.4 32.7 10.09 0.397
10:37 1033 30.5 862 25.45 9.8 49.6 49 -0.4 31.3 10.15 0.4
10:38 1033 30.5 862 25.45 10 49.9 52 0.5 33 10.28 0.405
10:39 1033 30.5 862 25.45 10.2 50.3 51 0.6 33 10.54 0.415
10:40 1033 30.5 862 25.45 10.4 50.7 48 -0.1 31.8 10.65 0.419
10:41 1033 30.5 862 25.45 10.4 50.7 47 -0.4 31.3 10.62 0.418
10:42 1033 30.5 862 25.45 10.2 50.4 48 -0.2 31.6 10.61 0.418
10:43 1033 30.5 862 25.45 10.2 50.4 47 -0.6 30.9 10.61 0.418
10:44 1033 30.5 862 25.45 10.1 50.2 52 0.7 33.2 10.52 0.414
10:45 1033 30.5 862 25.45 10.1 50.2 51 0.6 33 10.49 0.413
10:46 1033 30.5 862 25.45 10.1 50.1 47 -0.6 30.9 10.47 0.412
10:47 1033 30.5 862 25.45 9.9 49.9 52 0.5 32.9 10.38 0.409
10:48 1033 30.5 862 25.45 9.9 49.8 47 -0.9 30.3 10.36 0.408
10:49 1033 30.5 862 25.45 9.8 49.7 48 -0.5 31.1 10.3 0.406
10:50 1033 30.5 862 25.45 9.8 49.7 49 -0.4 31.3 10.32 0.406
10:51 1033 30.5 862 25.45 9.9 49.7 48 -0.6 30.9 10.3 0.406
10:52 1033 30.5 862 25.45 10 50 49 -0.2 31.6 10.45 0.411
10:53 1033 30.5 862 25.45 10 50.1 49 -0.2 31.7 10.47 0.412
10:54 1033 30.5 862 25.45 10 50 49 -0.2 31.7 10.44 0.411
10:55 1033 30.5 862 25.45 10.1 50.2 47 -0.6 30.9 10.55 0.415
10:56 1033 30.5 862 25.45 10.2 50.3 53 1 33.7 10.58 0.417
10:57 1033 30.5 862 25.45 10.1 50.3 52 0.8 33.4 10.66 0.42
10:58 1033 30.5 862 25.45 10.3 50.6 52 1 33.7 10.76 0.424
10:59 1033 30.5 862 25.45 10.4 50.7 49 0.2 32.3 10.8 0.425
11:00 1033 30.5 862 25.45 10.3 50.5 49 0 32.1 10.73 0.422
11:01 1033 30.5 862 25.45 10.3 50.5 51 0.8 33.4 10.76 0.424
11:02 1033 30.5 862 25.45 10.3 50.6 49 0.2 32.3 10.79 0.425
11:03 1033 30.5 862 25.45 10.3 50.6 49 0 32 10.77 0.424
11:04 1033 30.5 862 25.45 10.3 50.5 52 0.8 33.4 10.76 0.424
11:05 1033 30.5 862 25.45 10.4 50.6 49 0.3 32.5 10.85 0.427
11:06 1033 30.5 862 25.45 10.5 50.8 46 -0.6 31 10.93 0.43
11:07 1033 30.5 862 25.45 10.4 50.6 46 -0.8 30.5 10.85 0.427
11:08 1033 30.5 862 25.45 10.4 50.7 47 -0.5 31.1 10.92 0.43
11:09 1033 30.5 862 25.45 10.6 51.1 45 -0.7 30.7 11.11 0.437
11:10 1033 30.5 862 25.45 10.7 51.2 47 -0.2 31.7 11.23 0.442
11:11 1033 30.5 862 25.45 10.9 51.7 48 0.5 32.9 11.49 0.452
11:12 1033 30.5 862 25.45 11 51.9 48 0.6 33.1 11.67 0.459
11:13 1033 30.5 862 25.45 11.1 52 50 1.1 34 11.67 0.459
11:14 1033 30.5 862 25.45 11 51.8 45 -0.5 31.1 11.49 0.452
11:15 1033 30.5 862 25.45 10.9 51.5 46 -0.1 31.8 11.35 0.447
11:16 1033 30.5 862 25.45 10.8 51.4 49 0.5 33 11.23 0.442
11:17 1033 30.5 862 25.45 10.8 51.5 51 1.1 34 11.36 0.447
11:18 1033 30.5 862 25.45 10.8 51.4 46 -0.2 31.7 11.29 0.444
11:19 1033 30.5 862 25.45 10.5 51 50 0.5 32.9 11.07 0.436
11:20 1033 30.5 862 25.45 10.4 50.7 50 0.3 32.6 10.92 0.43
11:21 1033 30.5 862 25.45 10.3 50.5 49 -0 32 10.78 0.424
11:22 1033 30.5 862 25.45 10.2 50.4 48 -0.3 31.5 10.72 0.422
11:23 1033 30.5 862 25.45 10.2 50.3 52 0.9 33.7 10.69 0.421
11:24 1033 30.5 862 25.45 10.3 50.5 47 -0.6 31 10.81 0.426
11:25 1033 30.5 862 25.45 10.4 50.6 48 -0.1 31.8 10.88 0.428
11:26 1033 30.5 862 25.45 10.4 50.8 51 0.7 33.2 10.91 0.43
11:27 1033 30.5 862 25.45 10.5 51 44 -1.3 29.7 11.02 0.434
11:28 1033 30.5 862 25.45 10.5 50.9 45 -0.9 30.4 11.03 0.434
11:29 1033 30.5 862 25.45 10.5 50.8 46 -0.8 30.6 10.96 0.431
11:30 1032 30.47 862 25.45 10.4 50.8 48 -0.1 31.9 10.94 0.431
11:31 1032 30.47 862 25.45 10.5 50.8 47 -0.3 31.5 11.01 0.433
11:32 1032 30.47 862 25.45 10.6 51.1 44 -0.9 30.3 11.14 0.439
11:33 1032 30.47 862 25.45 10.6 51.1 45 -0.7 30.8 11.17 0.44
11:34 1032 30.47 862 25.45 10.7 51.2 42 -1.7 28.9 11.21 0.441
11:35 1032 30.47 862 25.45 10.9 51.6 41 -1.9 28.6 11.36 0.447
11:36 1032 30.47 862 25.45 11.1 52 47 0.2 32.4 11.62 0.457
11:37 1032 30.47 862 25.45 11.3 52.3 43 -0.7 30.7 11.79 0.464
11:38 1032 30.47 862 25.45 11.3 52.3 44 -0.6 31 11.75 0.463
11:39 1032 30.47 862 25.45 11.2 52.2 45 -0.3 31.5 11.67 0.459
11:40 1032 30.47 862 25.45 11.1 52 44 -0.5 31 11.62 0.457
11:41 1032 30.47 862 25.45 11.1 51.9 50 1.1 34 11.65 0.459
11:42 1032 30.47 862 25.45 11.2 52.2 42 -1.2 29.8 11.7 0.461
11:43 1032 30.47 862 25.45 11.2 52.1 41 -1.6 29.1 11.66 0.459
11:44 1032 30.47 862 25.45 11.2 52.1 42 -1.2 29.8 11.68 0.46
11:45 1032 30.47 862 25.45 11.3 52.4 41 -1.3 29.7 11.78 0.464
11:46 1033 30.5 862 25.45 11.5 52.6 41 -1.2 29.8 11.91 0.469
11:47 1033 30.5 862 25.45 11.5 52.7 42 -1.1 30.1 11.9 0.469
11:48 1033 30.5 862 25.45 11.4 52.6 44 -0.5 31.2 11.83 0.466
11:49 1033 30.5 862 25.45 11.4 52.5 42 -1.1 29.9 11.76 0.463
11:50 1033 30.5 862 25.45 11.5 52.8 41 -1.3 29.7 11.75 0.463
11:51 1033 30.5 862 25.45 11.6 52.8 46 0.4 32.8 11.84 0.466
11:52 1033 30.5 862 25.45 11.4 52.5 43 -0.8 30.5 11.72 0.461
11:53 1033 30.5 862 25.45 11 51.8 44 -0.7 30.7 11.37 0.448
11:54 1033 30.5 862 25.45 10.6 51.1 48 -0 32 10.97 0.432
11:55 1033 30.5 862 25.45 10.3 50.6 45 -1 30.1 10.69 0.421
11:56 1033 30.5 862 25.45 10.1 50.2 48 -0.4 31.3 10.45 0.411
11:57 1033 30.5 862 25.45 9.9 49.9 49 -0.2 31.7 10.33 0.407
11:58 1033 30.5 862 25.45 9.9 49.9 45 -1.3 29.6 10.31 0.406
11:59 1032 30.47 862 25.45 9.9 49.9 46 -1.1 30 10.32 0.406
12:00 1032 30.47 862 25.45 10 49.9 48 -0.4 31.3 10.34 0.407
12:01 1032 30.47 862 25.45 10.2 50.3 41 -2.3 27.9 10.58 0.417
12:02 1032 30.47 862 25.45 10.4 50.8 48 -0.2 31.7 10.79 0.425
12:03 1032 30.47 862 25.45 10.8 51.5 44 -1 30.2 11.22 0.442
12:04 1032 30.47 862 25.45 11.2 52.1 41 -1.6 29.2 11.57 0.456
12:05 1032 30.47 862 25.45 11.2 52.2 40 -1.9 28.6 11.55 0.455
12:06 1032 30.47 862 25.45 11.1 52 43 -1 30.3 11.45 0.451
12:07 1032 30.47 862 25.45 11 51.7 40 -2 28.4 11.29 0.444
12:08 1032 30.47 862 25.45 10.8 51.4 39 -2.6 27.2 11.01 0.433
12:09 1032 30.47 862 25.45 10.6 51.1 41 -2 28.4 10.84 0.427
12:10 1032 30.47 862 25.45 10.8 51.4 40 -2.4 27.7 10.98 0.432
12:11 1032 30.47 862 25.45 10.9 51.7 37 -3.2 26.2 11.16 0.439
12:12 1032 30.47 862 25.45 11.1 51.9 42 -1.3 29.7 11.3 0.445
12:13 1032 30.47 862 25.45 11.2 52.2 36 -3.4 25.9 11.52 0.454
12:14 1032 30.47 862 25.45 11.1 52 35 -3.5 25.6 11.46 0.451
12:15 1032 30.47 862 25.45 11 51.7 37 -3 26.6 11.34 0.446
12:16 1032 30.47 862 25.45 11.1 51.9 39 -2.4 27.7 11.42 0.45
12:17 1032 30.47 862 25.45 11.2 52.1 33 -4.3 24.2 11.53 0.454
12:18 1032 30.47 862 25.45 11.1 51.9 34 -4.3 24.2 11.36 0.447
12:19 1032 30.47 862 25.45 11 51.7 35 -3.7 25.3 11.18 0.44
12:20 1032 30.47 862 25.45 10.9 51.6 36 -3.5 25.7 11.08 0.436
12:21 1032 30.47 862 25.45 10.9 51.7 38 -2.9 26.7 11.1 0.437
12:22 1032 30.47 861 25.43 11.1 52 36 -3.3 26 11.38 0.448
12:23 1032 30.47 862 25.45 11.3 52.3 39 -2.1 28.3 11.55 0.455
12:24 1032 30.47 861 25.43 11.3 52.4 40 -1.6 29.1 11.66 0.459
12:25 1032 30.47 861 25.43 11.4 52.5 37 -2.7 27.2 11.8 0.465
12:26 1032 30.47 861 25.43 11.6 53 40 -1.4 29.4 12.03 0.474
12:27 1032 30.47 861 25.43 11.8 53.2 39 -1.7 28.9 12.25 0.482
12:28 1032 30.47 861 25.43 11.8 53.2 38 -2 28.4 12.28 0.483
12:29 1032 30.47 861 25.43 11.7 53.1 38 -2.1 28.3 12.22 0.481
12:30 1032 30.47 861 25.43 11.9 53.3 42 -0.7 30.8 12.32 0.485
12:31 1032 30.47 861 25.43 12 53.6 35 -3 26.6 12.46 0.491
12:32 1032 30.47 861 25.43 12.1 53.7 42 -0.5 31.1 12.35 0.486
12:33 1032 30.47 861 25.43 12.1 53.7 35 -2.8 27 12.4 0.488
12:34 1032 30.47 861 25.43 11.9 53.4 35 -3.1 26.4 12.31 0.485
12:35 1032 30.47 861 25.43 11.9 53.3 39 -1.6 29 12.34 0.486
12:36 1032 30.47 861 25.43 12.1 53.8 40 -1.2 29.9 12.56 0.494
12:37 1032 30.47 861 25.43 12.3 54.2 33 -3.3 26.1 12.6 0.496
12:38 1032 30.47 861 25.43 12.4 54.4 38 -1.5 29.3 12.67 0.499
12:39 1032 30.47 861 25.43 12.5 54.5 31 -4 24.8 12.77 0.503
12:40 1032 30.47 861 25.43 12.4 54.4 35 -2.7 27.1 12.65 0.498
12:41 1032 30.47 861 25.43 12.4 54.4 32 -3.6 25.5 12.63 0.497
12:42 1032 30.47 861 25.43 12.2 53.9 37 -2.1 28.3 12.49 0.492
12:43 1032 30.47 861 25.43 12.2 53.9 36 -2.3 27.8 12.52 0.493
12:44 1032 30.47 861 25.43 12.2 54 39 -1.4 29.5 12.48 0.491
12:45 1032 30.47 861 25.43 12.3 54.2 36 -2.3 27.9 12.66 0.498
12:46 1032 30.47 861 25.43 12.3 54.2 38 -1.6 29.2 12.68 0.499
12:47 1032 30.47 861 25.43 12.2 53.9 37 -2.1 28.2 12.55 0.494
12:48 1032 30.47 861 25.43 12.1 53.7 41 -0.6 31 12.44 0.49
12:49 1032 30.47 861 25.43 12.1 53.7 35 -2.7 27.2 12.48 0.491
12:50 1032 30.47 861 25.43 12.1 53.8 33 -3.5 25.6 12.51 0.493
12:51 1032 30.47 861 25.43 12.1 53.7 41 -0.6 30.9 12.55 0.494
12:52 1032 30.47 861 25.43 12.2 53.9 38 -1.7 28.9 12.61 0.496
12:53 1032 30.47 861 25.43 12.3 54.1 38 -1.5 29.2 12.7 0.5
12:54 1032 30.47 861 25.43 12.2 54 36 -2.3 27.9 12.62 0.497
12:55 1032 30.47 861 25.43 12.1 53.8 34 -3.1 26.4 12.56 0.494
12:56 1032 30.47 861 25.43 12.1 53.7 36 -2.5 27.5 12.58 0.495
12:57 1032 30.47 861 25.43 12.2 53.9 40 -0.9 30.3 12.72 0.501
12:58 1032 30.47 861 25.43 12.2 54 37 -1.9 28.6 12.72 0.501
12:59 1032 30.47 861 25.43 12.2 54 35 -2.7 27.1 12.7 0.5
13:00 1032 30.47 861 25.43 12.3 54.1 36 -2.4 27.6 12.76 0.502
13:01 1032 30.47 861 25.43 12.4 54.3 37 -1.9 28.5 12.85 0.506
13:02 1032 30.47 861 25.43 12.3 54.2 41 -0.4 31.3 12.81 0.504
13:03 1032 30.47 861 25.43 12.4 54.4 36 -2.1 28.2 12.92 0.509
13:04 1032 30.47 861 25.43 12.5 54.5 40 -0.5 31.1 13.02 0.513
13:05 1032 30.47 861 25.43 12.7 54.8 36 -2.1 28.3 13.1 0.516
13:06 1032 30.47 861 25.43 12.6 54.7 32 -3.6 25.6 12.86 0.506
13:07 1032 30.47 861 25.43 12.5 54.5 38 -1.3 29.7 12.66 0.498
13:08 1032 30.47 861 25.43 12.4 54.2 36 -2.3 27.9 12.46 0.491
13:09 1032 30.47 861 25.43 12.2 53.9 33 -3.5 25.7 12.36 0.487
13:10 1032 30.47 861 25.43 12.1 53.8 38 -1.7 28.9 12.38 0.487
13:11 1032 30.47 861 25.43 12.3 54.1 36 -2.4 27.7 12.62 0.497
13:12 1032 30.47 861 25.43 12.4 54.2 35 -2.7 27.2 12.66 0.498
13:13 1032 30.47 861 25.43 12.3 54.2 37 -2 28.3 12.65 0.498
13:14 1032 30.47 861 25.43 12.3 54.1 36 -2.2 28 12.58 0.495
13:15 1032 30.47 861 25.43 12.2 53.9 39 -1.2 29.9 12.47 0.491
13:16 1032 30.47 861 25.43 12.2 53.9 37 -2.1 28.2 12.5 0.492
13:17 1032 30.47 861 25.43 12.2 54 33 -3.7 25.3 12.57 0.495
13:18 1032 30.47 861 25.43 12.2 53.9 36 -2.5 27.5 12.52 0.493
13:19 1032 30.47 861 25.43 12.2 54 32 -3.8 25.1 12.51 0.493
13:20 1032 30.47 861 25.43 12.1 53.9 35 -2.9 26.8 12.46 0.491
13:21 1032 30.47 861 25.43 12.1 53.7 35 -2.8 27 12.42 0.489
13:22 1032 30.47 861 25.43 12.1 53.7 33 -3.5 25.7 12.37 0.487
13:23 1032 30.47 861 25.43 12.1 53.8 34 -3.2 26.3 12.3 0.484
13:24 1032 30.47 861 25.43 12.1 53.8 40 -1.1 30 12.38 0.487
13:25 1032 30.47 861 25.43 12.3 54.2 38 -1.6 29.1 12.66 0.498
13:26 1032 30.47 861 25.43 12.5 54.4 33 -3.5 25.8 12.72 0.501
13:27 1032 30.47 861 25.43 12.5 54.4 39 -1.2 29.9 12.73 0.501
13:28 1032 30.47 861 25.43 12.7 54.8 38 -1.3 29.6 13 0.512
13:29 1032 30.47 861 25.43 12.9 55.3 37 -1.5 29.3 13.31 0.524
13:30 1032 30.47 861 25.43 13 55.5 36 -1.6 29.2 13.51 0.532
13:31 1031 30.45 861 25.43 13.2 55.8 32 -3.2 26.3 13.66 0.538
13:32 1031 30.45 861 25.43 13.1 55.7 34 -2.3 27.9 13.66 0.538
13:33 1032 30.47 861 25.43 13.1 55.5 36 -1.7 29 13.58 0.535
13:34 1031 30.45 861 25.43 13.1 55.5 34 -2.5 27.5 13.6 0.535
13:35 1031 30.45 861 25.43 12.8 55.1 37 -1.3 29.7 13.41 0.528
13:36 1031 30.45 861 25.43 12.6 54.7 32 -3.4 25.8 13.25 0.522
13:37 1031 30.45 861 25.43 12.4 54.4 35 -2.5 27.5 13.02 0.513
13:38 1031 30.45 861 25.43 12.5 54.5 34 -3.1 26.5 13.07 0.515
13:39 1031 30.45 861 25.43 12.6 54.7 35 -2.4 27.8 13.18 0.519
13:40 1031 30.45 861 25.43 12.6 54.7 34 -2.6 27.3 13.12 0.517
13:41 1031 30.45 861 25.43 12.5 54.6 33 -3.4 25.9 13.08 0.515
13:42 1031 30.45 861 25.43 12.6 54.6 33 -3.1 26.4 13.06 0.514
13:43 1031 30.45 861 25.43 12.6 54.6 32 -3.6 25.6 13.05 0.514
13:44 1031 30.45 861 25.43 12.6 54.7 34 -2.8 27 13.14 0.517
13:45 1031 30.45 861 25.43 12.8 55.1 35 -2 28.4 13.39 0.527
13:46 1031 30.45 861 25.43 13.2 55.7 32 -3.2 26.3 13.68 0.539
13:47 1031 30.45 861 25.43 13.2 55.7 33 -2.5 27.5 13.72 0.54
13:48 1031 30.45 861 25.43 13 55.4 32 -3.2 26.2 13.63 0.537
13:49 1031 30.45 861 25.43 13 55.4 32 -3.3 26.1 13.59 0.535
13:50 1031 30.45 861 25.43 13 55.3 32 -3.3 26.1 13.56 0.534
13:51 1031 30.45 861 25.43 13.2 55.7 33 -2.9 26.8 13.77 0.542
13:52 1031 30.45 861 25.43 13.4 56 34 -2 28.5 13.98 0.55
13:53 1031 30.45 861 25.43 13.4 56.1 35 -1.8 28.8 13.99 0.551
13:54 1031 30.45 861 25.43 13.2 55.7 36 -1.5 29.2 13.78 0.543
13:55 1031 30.45 861 25.43 13.1 55.6 32 -3.3 26 13.66 0.538
13:56 1031 30.45 861 25.43 12.9 55.3 35 -2.2 28 13.46 0.53
13:57 1031 30.45 860 25.4 13 55.3 37 -1.4 29.4 13.47 0.53
13:58 1031 30.45 861 25.43 13 55.4 35 -2.2 28 13.55 0.533
13:59 1031 30.45 861 25.43 13.1 55.5 34 -2.4 27.6 13.53 0.533
14:00 1031 30.45 860 25.4 13 55.5 38 -0.8 30.5 13.4 0.528
14:01 1031 30.45 860 25.4 13.1 55.6 34 -2.4 27.7 13.47 0.53
14:02 1031 30.45 860 25.4 13.2 55.7 36 -1.4 29.5 13.56 0.534
14:03 1031 30.45 860 25.4 13.3 56 35 -1.6 29.1 13.76 0.542
14:04 1031 30.45 860 25.4 13.4 56.1 31 -3.4 25.9 13.8 0.543
14:05 1031 30.45 860 25.4 13.3 55.9 31 -3.3 26.1 13.79 0.543
14:06 1031 30.45 860 25.4 13.3 56 33 -2.4 27.7 13.78 0.543
14:07 1031 30.45 860 25.4 13.5 56.3 36 -1.4 29.5 13.95 0.549
14:08 1031 30.45 860 25.4 13.7 56.6 31 -3.1 26.3 14.03 0.552
14:09 1031 30.45 860 25.4 13.6 56.5 29 -4 24.8 13.87 0.546
14:10 1031 30.45 860 25.4 13.5 56.2 33 -2.6 27.3 13.8 0.543
14:11 1031 30.45 860 25.4 13.6 56.4 31 -3.1 26.4 13.85 0.545
14:12 1031 30.45 860 25.4 13.5 56.3 32 -2.8 27 13.77 0.542
14:13 1031 30.45 860 25.4 13.5 56.3 31 -3.4 25.9 13.72 0.54
14:14 1031 30.45 860 25.4 13.5 56.3 33 -2.4 27.6 13.69 0.539
14:15 1031 30.45 860 25.4 13.4 56.1 31 -3.5 25.6 13.66 0.538
14:16 1031 30.45 860 25.4 13.2 55.8 33 -2.8 27 13.46 0.53
14:17 1031 30.45 860 25.4 13.2 55.8 37 -1.1 30.1 13.55 0.533
14:18 1031 30.45 860 25.4 13.4 56.1 34 -2.2 28 13.74 0.541
14:19 1031 30.45 860 25.4 13.5 56.3 31 -3.4 25.9 13.81 0.544
14:20 1031 30.45 860 25.4 13.5 56.2 34 -2.1 28.3 13.77 0.542
14:21 1031 30.45 860 25.4 13.4 56.2 33 -2.5 27.4 13.78 0.543
14:22 1031 30.45 860 25.4 13.4 56 30 -3.6 25.4 13.72 0.54
14:23 1031 30.45 860 25.4 13.3 55.9 31 -3.3 26 13.7 0.539
14:24 1031 30.45 860 25.4 13.4 56.1 29 -4 24.8 13.8 0.543
14:25 1031 30.45 860 25.4 13.3 56 30 -3.8 25.1 13.82 0.544
14:26 1031 30.45 860 25.4 13.3 55.9 37 -1.1 30.1 13.75 0.541
14:27 1031 30.45 860 25.4 13.5 56.2 31 -3.1 26.4 13.89 0.547
14:28 1031 30.45 860 25.4 13.5 56.4 35 -1.7 28.9 13.88 0.546
14:29 1031 30.45 860 25.4 13.6 56.4 32 -2.6 27.2 13.86 0.546
14:30 1031 30.45 860 25.4 13.5 56.3 31 -3.1 26.4 13.79 0.543
14:31 1031 30.45 860 25.4 13.5 56.3 31 -3.1 26.5 13.68 0.539
14:32 1031 30.45 860 25.4 13.5 56.3 30 -3.9 25 13.77 0.542
14:33 1031 30.45 860 25.4 13.5 56.3 30 -3.6 25.5 13.7 0.539
14:34 1031 30.45 860 25.4 13.5 56.2 34 -2.2 28.1 13.59 0.535
14:35 1031 30.45 860 25.4 13.5 56.3 33 -2.4 27.6 13.71 0.54
14:36 1031 30.45 860 25.4 13.6 56.4 32 -2.8 27 13.87 0.546
14:37 1031 30.45 860 25.4 13.8 56.8 32 -2.6 27.4 14.02 0.552
14:38 1031 30.45 860 25.4 13.9 56.9 32 -2.4 27.8 14.03 0.552
14:39 1031 30.45 860 25.4 13.9 57 33 -2.2 28.1 14.01 0.552
14:40 1031 30.45 860 25.4 13.9 57 32 -2.6 27.3 14.12 0.556
14:41 1031 30.45 860 25.4 13.9 56.9 32 -2.7 27.2 14.19 0.559
14:42 1031 30.45 860 25.4 13.9 57.1 29 -3.7 25.3 14.21 0.559
14:43 1031 30.45 860 25.4 13.8 56.9 33 -2.3 27.9 14.11 0.556
14:44 1031 30.45 860 25.4 13.8 56.9 32 -2.5 27.5 14.04 0.553
14:45 1031 30.45 860 25.4 13.8 56.8 30 -3.5 25.7 14 0.551
14:46 1031 30.45 860 25.4 13.8 56.8 31 -2.9 26.9 13.97 0.55
14:47 1031 30.45 860 25.4 13.8 56.8 34 -1.6 29 14 0.551
14:48 1031 30.45 860 25.4 13.9 57 32 -2.3 27.8 14.15 0.557
14:49 1031 30.45 860 25.4 13.9 57 34 -1.8 28.7 14.2 0.559
14:50 1031 30.45 860 25.4 13.9 57.1 33 -1.9 28.6 14.2 0.559
14:51 1031 30.45 860 25.4 14 57.1 31 -2.7 27.1 14.24 0.561
14:52 1031 30.45 860 25.4 14 57.2 36 -0.8 30.5 14.3 0.563
14:53 1031 30.45 860 25.4 14.2 57.6 34 -1.5 29.3 14.44 0.569
14:54 1031 30.45 860 25.4 14.3 57.7 28 -3.9 25 14.48 0.57
14:55 1031 30.45 860 25.4 14 57.3 34 -1.6 29.1 14.31 0.563
14:56 1031 30.45 860 25.4 14 57.2 30 -3.2 26.3 14.28 0.562
14:57 1031 30.45 860 25.4 13.9 57 31 -2.8 27 14.13 0.556
14:58 1031 30.45 860 25.4 13.9 56.9 35 -1.3 29.7 14.13 0.556
14:59 1031 30.45 860 25.4 13.9 57 33 -1.9 28.6 14.17 0.558
15:00 1031 30.45 860 25.4 14 57.2 29 -3.6 25.6 14.17 0.558
15:01 1031 30.45 860 25.4 14 57.2 28 -4 24.9 14.15 0.557
15:02 1031 30.45 860 25.4 14 57.2 32 -2.4 27.7 14.13 0.556
15:03 1031 30.45 860 25.4 14.1 57.3 30 -3.4 25.9 14.22 0.56
15:04 1031 30.45 860 25.4 14.1 57.3 29 -3.8 25.2 14.27 0.562
15:05 1031 30.45 860 25.4 14.1 57.5 29 -3.6 25.6 14.26 0.561
15:06 1031 30.45 860 25.4 14.2 57.5 29 -3.7 25.3 14.36 0.565
15:07 1030 30.42 860 25.4 14.2 57.5 28 -4 24.8 14.29 0.563
15:08 1030 30.42 860 25.4 14.2 57.5 30 -3 26.7 14.32 0.564
15:09 1030 30.42 860 25.4 14.3 57.7 33 -1.6 29.1 14.51 0.571
15:10 1030 30.42 860 25.4 14.4 58 31 -2.4 27.8 14.8 0.583
15:11 1030 30.42 860 25.4 14.5 58 28 -3.7 25.3 14.9 0.587
15:12 1030 30.42 860 25.4 14.5 58.1 31 -2.3 27.9 14.76 0.581
15:13 1030 30.42 860 25.4 14.4 57.9 32 -2.1 28.2 14.61 0.575
15:14 1030 30.42 860 25.4 14.4 57.9 31 -2.4 27.7 14.66 0.577
15:15 1030 30.42 860 25.4 14.5 58.1 32 -2.1 28.2 14.66 0.577
15:16 1030 30.42 860 25.4 14.4 58 29 -3.4 25.9 14.6 0.575
15:17 1030 30.42 860 25.4 14.4 57.8 29 -3.5 25.6 14.49 0.57
15:18 1030 30.42 860 25.4 14.4 57.8 30 -3.1 26.5 14.44 0.569
15:19 1030 30.42 860 25.4 14.3 57.7 33 -1.7 29 14.48 0.57
15:20 1030 30.42 860 25.4 14.3 57.7 31 -2.4 27.6 14.54 0.572
15:21 1030 30.42 860 25.4 14.4 57.9 29 -3.5 25.8 14.61 0.575
15:22 1030 30.42 860 25.4 14.4 58 32 -2.2 28.1 14.7 0.579
15:23 1030 30.42 860 25.4 14.6 58.2 29 -3.3 26.1 14.75 0.581
15:24 1030 30.42 860 25.4 14.6 58.4 28 -3.5 25.7 14.83 0.584
15:25 1030 30.42 860 25.4 14.6 58.3 30 -2.6 27.3 14.89 0.586
15:26 1030 30.42 860 25.4 14.6 58.3 29 -3.1 26.4 15.01 0.591
15:27 1030 30.42 860 25.4 14.7 58.5 27 -3.9 24.9 15.13 0.596
15:28 1030 30.42 860 25.4 14.7 58.5 32 -1.8 28.8 15.17 0.597
15:29 1030 30.42 860 25.4 14.8 58.6 31 -2.2 28.1 15.17 0.597
15:30 1030 30.42 859 25.37 14.8 58.7 32 -1.8 28.8 15.21 0.599
15:31 1030 30.42 859 25.37 14.8 58.6 31 -2 28.3 15.2 0.598
15:32 1030 30.42 859 25.37 14.8 58.7 28 -3.3 26 15.19 0.598
15:33 1030 30.42 859 25.37 14.8 58.6 32 -1.5 29.2 15.07 0.593
15:34 1030 30.42 859 25.37 14.7 58.5 33 -1.4 29.4 15.06 0.593
15:35 1030 30.42 859 25.37 14.8 58.6 27 -3.9 25 15.1 0.594
15:36 1030 30.42 859 25.37 14.8 58.6 30 -2.5 27.4 14.93 0.588
15:37 1030 30.42 859 25.37 14.6 58.3 28 -3.5 25.7 14.82 0.583
15:38 1030 30.42 859 25.37 14.5 58.1 29 -3.1 26.4 14.63 0.576
15:39 1030 30.42 859 25.37 14.3 57.8 29 -3.3 26 14.5 0.571
15:40 1030 30.42 859 25.37 14.2 57.6 33 -1.8 28.7 14.52 0.572
15:41 1030 30.42 859 25.37 14.2 57.6 31 -2.7 27.1 14.57 0.574
15:42 1030 30.42 859 25.37 14.3 57.8 30 -2.9 26.8 14.6 0.575
15:43 1030 30.42 859 25.37 14.4 57.9 32 -2.1 28.3 14.61 0.575
15:44 1030 30.42 859 25.37 14.4 57.9 31 -2.6 27.3 14.6 0.575
15:45 1030 30.42 859 25.37 14.4 57.9 29 -3.3 26.1 14.62 0.576
15:46 1030 30.42 859 25.37 14.5 58 30 -2.7 27.2 14.7 0.579
15:47 1030 30.42 859 25.37 14.5 58.2 30 -2.8 27 14.76 0.581
15:48 1030 30.42 859 25.37 14.7 58.4 31 -2.4 27.8 14.95 0.589
15:49 1030 30.42 859 25.37 14.7 58.5 30 -2.7 27.1 15 0.591
15:50 1030 30.42 859 25.37 14.7 58.5 31 -2.3 27.8 14.98 0.59
15:51 1030 30.42 859 25.37 14.8 58.6 29 -3.1 26.4 15.06 0.593
15:52 1030 30.42 859 25.37 14.8 58.7 29 -2.9 26.7 15.13 0.596
15:53 1030 30.42 859 25.37 14.9 58.8 29 -3 26.5 15.21 0.599
15:54 1030 30.42 859 25.37 14.9 58.8 28 -3.3 26 15.19 0.598
15:55 1030 30.42 859 25.37 14.9 58.8 28 -3.4 25.9 15.13 0.596
15:56 1030 30.42 859 25.37 14.9 58.8 30 -2.3 27.9 15.06 0.593
15:57 1030 30.42 859 25.37 14.9 58.9 28 -3.2 26.2 15.14 0.596
15:58 1030 30.42 859 25.37 14.8 58.7 30 -2.6 27.3 15.17 0.597
15:59 1030 30.42 859 25.37 14.8 58.7 26 -4.2 24.5 15.16 0.597
16:00 1030 30.42 859 25.37 14.7 58.4 29 -3.1 26.4 15.01 0.591
16:01 1030 30.42 859 25.37 14.5 58.2 27 -4.4 24 14.87 0.585
16:02 1030 30.42 859 25.37 14.5 58.1 28 -3.5 25.7 14.86 0.585
16:03 1030 30.42 859 25.37 14.6 58.3 27 -4.3 24.2 14.88 0.586
16:04 1030 30.42 859 25.37 14.7 58.4 26 -4.5 23.9 14.88 0.586
16:05 1030 30.42 859 25.37 14.7 58.4 28 -3.6 25.6 14.79 0.582
16:06 1030 30.42 859 25.37 14.7 58.5 25 -4.9 23.1 14.8 0.583
16:07 1030 30.42 859 25.37 14.6 58.3 24 -5.4 22.3 14.8 0.583
16:08 1030 30.42 859 25.37 14.6 58.3 28 -3.5 25.7 14.76 0.581
16:09 1030 30.42 859 25.37 14.6 58.2 29 -3.3 26.1 14.72 0.58
16:10 1030 30.42 859 25.37 14.7 58.4 27 -4.2 24.4 14.78 0.582
16:11 1030 30.42 859 25.37 14.7 58.5 25 -4.9 23.2 14.83 0.584
16:12 1030 30.42 859 25.37 14.8 58.6 26 -4.6 23.7 15.02 0.591
16:13 1030 30.42 859 25.37 14.7 58.5 28 -3.4 25.9 15 0.591
16:14 1030 30.42 859 25.37 14.7 58.5 28 -3.4 25.8 15.04 0.592
16:15 1030 30.42 859 25.37 14.8 58.7 30 -2.7 27.1 15.15 0.596
16:16 1030 30.42 859 25.37 14.9 58.8 24 -5.2 22.6 15.26 0.601
16:17 1030 30.42 859 25.37 15 58.9 24 -5.1 22.8 15.35 0.604
16:18 1030 30.42 859 25.37 15.1 59.1 26 -4.1 24.7 15.44 0.608
16:19 1030 30.42 859 25.37 15.2 59.3 25 -4.4 24.1 15.57 0.613
16:20 1030 30.42 859 25.37 15.2 59.4 28 -3.2 26.2 15.63 0.615
16:21 1030 30.42 859 25.37 15.2 59.4 26 -4.3 24.3 15.65 0.616
16:22 1030 30.42 859 25.37 15.2 59.3 27 -3.4 25.8 15.56 0.613
16:23 1030 30.42 859 25.37 15.1 59.2 28 -3 26.6 15.44 0.608
16:24 1030 30.42 859 25.37 15.1 59.1 28 -3.2 26.3 15.45 0.608
16:25 1030 30.42 859 25.37 15.1 59.1 25 -4.5 23.9 15.49 0.61
16:26 1030 30.42 859 25.37 15.1 59.1 25 -5 23 15.39 0.606
16:27 1030 30.42 859 25.37 15 59 26 -4.4 24.2 15.37 0.605
16:28 1030 30.42 859 25.37 15.1 59.1 25 -4.7 23.5 15.36 0.605
16:29 1030 30.42 859 25.37 15.1 59.1 28 -3 26.5 15.35 0.604
16:30 1030 30.42 859 25.37 15.1 59.1 28 -3.2 26.2 15.42 0.607
16:31 1030 30.42 859 25.37 15.1 59.1 25 -4.8 23.3 15.48 0.609
16:32 1030 30.42 859 25.37 15.1 59.2 27 -3.8 25.1 15.47 0.609
16:33 1030 30.42 859 25.37 15.1 59.2 27 -3.9 25 15.46 0.609
16:34 1030 30.42 859 25.37 15.1 59.1 26 -4.2 24.4 15.47 0.609
16:35 1030 30.42 859 25.37 15 59 25 -4.9 23.3 15.39 0.606
16:36 1030 30.42 859 25.37 15 59.1 28 -3.1 26.4 15.38 0.606
16:37 1030 30.42 859 25.37 15.1 59.3 25 -4.7 23.5 15.57 0.613
16:38 1030 30.42 859 25.37 15.3 59.5 27 -3.6 25.5 15.58 0.613
16:39 1029 30.39 859 25.37 15.3 59.6 26 -3.7 25.3 15.62 0.615
16:40 1029 30.39 859 25.37 15.4 59.7 29 -2.6 27.3 15.78 0.621
16:41 1029 30.39 859 25.37 15.5 60 24 -5 23 15.87 0.625
16:42 1029 30.39 859 25.37 15.6 60.2 25 -4 24.8 15.93 0.627
16:43 1029 30.39 859 25.37 15.7 60.3 27 -3.2 26.3 15.9 0.626
16:44 1029 30.39 859 25.37 15.7 60.2 29 -2.3 27.9 15.85 0.624
16:45 1029 30.39 859 25.37 15.6 60.1 24 -4.7 23.6 15.76 0.62
16:46 1029 30.39 859 25.37 15.3 59.6 23 -5.4 22.3 15.63 0.615
16:47 1029 30.39 859 25.37 15.3 59.5 24 -5.3 22.5 15.62 0.615
16:48 1029 30.39 859 25.37 15.3 59.6 26 -3.9 24.9 15.61 0.615
16:49 1029 30.39 859 25.37 15.4 59.8 25 -4.4 24.1 15.78 0.621
16:50 1029 30.39 859 25.37 15.6 60.1 26 -3.5 25.7 15.99 0.63
16:51 1029 30.39 859 25.37 15.9 60.5 28 -2.7 27.2 16.2 0.638
16:52 1029 30.39 859 25.37 16.1 60.9 28 -2.2 28 16.33 0.643
16:53 1029 30.39 859 25.37 16.2 61.1 26 -3 26.6 16.42 0.646
16:54 1029 30.39 859 25.37 16.3 61.3 26 -3 26.7 16.42 0.646
16:55 1029 30.39 859 25.37 16.2 61.2 24 -4.3 24.3 16.29 0.641
16:56 1029 30.39 859 25.37 16 60.8 25 -4.1 24.7 16.13 0.635
16:57 1029 30.39 859 25.37 15.8 60.4 26 -3.5 25.7 16.06 0.632
16:58 1029 30.39 859 25.37 15.7 60.3 27 -2.9 26.7 16.04 0.631
16:59 1029 30.39 859 25.37 15.7 60.3 26 -3.8 25.2 16.07 0.633
17:00 1029 30.39 859 25.37 15.7 60.3 26 -3.7 25.3 16.05 0.632
17:01 1029 30.39 859 25.37 15.6 60 25 -4.5 24 15.92 0.627
17:02 1029 30.39 859 25.37 15.4 59.8 23 -5.5 22 15.85 0.624
17:03 1029 30.39 859 25.37 15.4 59.7 24 -5.2 22.6 15.8 0.622
17:04 1029 30.39 859 25.37 15.4 59.6 24 -5.3 22.5 15.84 0.624
17:05 1029 30.39 859 25.37 15.4 59.6 24 -5.2 22.6 15.83 0.623
17:06 1029 30.39 859 25.37 15.3 59.5 22 -6.1 21.1 15.73 0.619
17:07 1029 30.39 859 25.37 15.2 59.4 23 -5.8 21.6 15.72 0.619
17:08 1029 30.39 859 25.37 15.2 59.3 23 -5.6 21.8 15.7 0.618
17:09 1029 30.39 859 25.37 15.3 59.5 24 -4.9 23.2 15.77 0.621
17:10 1029 30.39 859 25.37 15.3 59.6 25 -4.6 23.7 15.87 0.625
17:11 1029 30.39 859 25.37 15.4 59.7 26 -3.9 24.9 15.93 0.627
17:12 1029 30.39 859 25.37 15.5 59.9 29 -2.5 27.5 16.01 0.63
17:13 1029 30.39 859 25.37 15.7 60.2 28 -2.7 27.2 16.17 0.637
17:14 1029 30.39 859 25.37 15.7 60.3 29 -2.4 27.7 16.18 0.637
17:15 1029 30.39 859 25.37 15.6 60.2 22 -5.9 21.4 16.08 0.633
17:16 1029 30.39 859 25.37 15.5 59.8 24 -5 23 15.85 0.624
17:17 1029 30.39 859 25.37 15.4 59.8 23 -5.5 22.2 15.83 0.623
17:18 1029 30.39 859 25.37 15.5 59.9 24 -5.1 22.8 15.91 0.626
17:19 1029 30.39 859 25.37 15.7 60.2 21 -6.4 20.4 15.88 0.625
17:20 1029 30.39 858 25.34 15.6 60.1 22 -6.2 20.8 15.73 0.619
17:21 1029 30.39 858 25.34 15.5 59.9 24 -5 22.9 15.6 0.614
17:22 1029 30.39 858 25.34 15.4 59.7 21 -6.5 20.4 15.51 0.611
17:23 1029 30.39 858 25.34 15.3 59.5 25 -4.5 24 15.48 0.609
17:24 1029 30.39 858 25.34 15.4 59.6 26 -4.1 24.6 15.57 0.613
17:25 1029 30.39 858 25.34 15.5 59.8 22 -5.8 21.5 15.69 0.618
17:26 1029 30.39 858 25.34 15.5 59.9 22 -6.2 20.8 15.76 0.62
17:27 1029 30.39 858 25.34 15.6 60.1 25 -4.1 24.6 15.93 0.627
17:28 1029 30.39 858 25.34 15.7 60.3 25 -4.1 24.6 16.02 0.631
17:29 1029 30.39 858 25.34 15.7 60.3 26 -3.6 25.5 15.9 0.626
17:30 1029 30.39 858 25.34 15.6 60.1 24 -4.9 23.2 15.77 0.621
17:31 1029 30.39 858 25.34 15.6 60.1 23 -5.4 22.3 15.63 0.615
17:32 1029 30.39 858 25.34 15.5 60 23 -5.3 22.4 15.6 0.614
17:33 1029 30.39 858 25.34 15.6 60.1 24 -4.6 23.7 15.68 0.617
17:34 1029 30.39 858 25.34 15.8 60.4 25 -3.9 25 15.76 0.62
17:35 1029 30.39 858 25.34 15.8 60.5 26 -3.6 25.5 15.87 0.625
17:36 1029 30.39 858 25.34 15.9 60.7 23 -5 23 16.05 0.632
17:37 1029 30.39 858 25.34 16.1 60.9 21 -6.2 20.8 16.15 0.636
17:38 1029 30.39 858 25.34 16.1 60.9 21 -6.3 20.7 16.06 0.632
17:39 1029 30.39 858 25.34 16 60.8 24 -4.7 23.5 15.98 0.629
17:40 1029 30.39 858 25.34 16 60.7 22 -5.6 21.9 15.98 0.629
17:41 1029 30.39 858 25.34 15.9 60.6 24 -4.7 23.6 15.99 0.63
17:42 1029 30.39 858 25.34 15.9 60.6 21 -6.4 20.4 16 0.63
17:43 1029 30.39 858 25.34 15.9 60.6 22 -5.9 21.4 15.94 0.628
17:44 1029 30.39 858 25.34 15.8 60.5 21 -6.4 20.4 15.92 0.627
17:45 1029 30.39 858 25.34 15.9 60.5 26 -3.4 25.8 15.98 0.629
17:46 1029 30.39 858 25.34 16 60.8 24 -4.7 23.5 16.17 0.637
17:47 1029 30.39 858 25.34 16.1 60.9 23 -4.9 23.1 16.36 0.644
17:48 1029 30.39 858 25.34 16.1 61 23 -5 23 16.39 0.645
17:49 1029 30.39 858 25.34 16.2 61.1 22 -5.6 22 16.43 0.647
17:50 1029 30.39 858 25.34 16.2 61.2 22 -5.7 21.8 16.48 0.649
17:51 1029 30.39 858 25.34 16.2 61.1 22 -5.5 22.1 16.44 0.647
17:52 1029 30.39 858 25.34 16.3 61.3 22 -5.4 22.3 16.51 0.65
17:53 1029 30.39 858 25.34 16.3 61.4 22 -5.4 22.3 16.57 0.652
17:54 1029 30.39 858 25.34 16.5 61.6 23 -4.5 23.9 16.64 0.655
17:55 1029 30.39 858 25.34 16.5 61.7 24 -3.8 25.2 16.74 0.659
17:56 1029 30.39 858 25.34 16.3 61.3 20 -6.7 19.9 16.61 0.654
17:57 1029 30.39 858 25.34 16 60.8 22 -5.6 21.9 16.36 0.644
17:58 1029 30.39 858 25.34 15.9 60.7 21 -6.6 20.1 16.35 0.644
17:59 1029 30.39 858 25.34 15.9 60.7 22 -5.4 22.2 16.34 0.643
18:00 1029 30.39 858 25.34 16 60.7 21 -6.4 20.5 16.35 0.644
18:01 1029 30.39 858 25.34 16 60.9 20 -6.8 19.8 16.48 0.649
18:02 1029 30.39 858 25.34 16.1 61 21 -6.3 20.6 16.6 0.654
18:03 1029 30.39 858 25.34 16.2 61.2 20 -6.5 20.4 16.61 0.654
18:04 1029 30.39 858 25.34 16.3 61.3 24 -4.4 24.1 16.55 0.652
18:05 1029 30.39 858 25.34 16.3 61.4 22 -5.2 22.6 16.64 0.655
18:06 1029 30.39 858 25.34 16.4 61.4 22 -5.2 22.6 16.66 0.656
18:07 1029 30.39 858 25.34 16.3 61.4 24 -4.2 24.4 16.54 0.651
18:08 1029 30.39 858 25.34 16.2 61.1 24 -4.5 23.9 16.33 0.643
18:09 1029 30.39 858 25.34 16 60.8 24 -4.6 23.7 16.07 0.633
18:10 1029 30.39 858 25.34 15.8 60.4 23 -5.1 22.8 15.76 0.62
18:11 1029 30.39 858 25.34 15.5 59.9 24 -4.7 23.6 15.51 0.611
18:12 1029 30.39 858 25.34 15.3 59.6 23 -5.7 21.8 15.35 0.604
18:13 1029 30.39 858 25.34 15.2 59.3 22 -6.3 20.7 15.28 0.602
18:14 1029 30.39 858 25.34 15.1 59.1 23 -6.1 21 15.21 0.599
18:15 1029 30.39 858 25.34 15.1 59.1 22 -6.6 20.1 15.24 0.6
18:16 1029 30.39 858 25.34 15.1 59.3 24 -5.4 22.3 15.27 0.601
18:17 1029 30.39 858 25.34 15.1 59.3 24 -5.3 22.4 15.34 0.604
18:18 1029 30.39 858 25.34 15.1 59.2 26 -4.1 24.7 15.45 0.608
18:19 1029 30.39 858 25.34 15 59.1 25 -5 23 15.59 0.614
18:20 1029 30.39 858 25.34 15.1 59.2 25 -4.8 23.4 15.6 0.614
18:21 1029 30.39 858 25.34 15.1 59.2 22 -6.2 20.8 15.58 0.613
18:22 1029 30.39 858 25.34 15.1 59.1 21 -6.7 19.9 15.48 0.609
18:23 1029 30.39 858 25.34 15 58.9 21 -6.9 19.6 15.39 0.606
18:24 1029 30.39 858 25.34 14.9 58.9 25 -5.1 22.9 15.28 0.602
18:25 1029 30.39 858 25.34 14.8 58.7 24 -5.7 21.8 15.19 0.598
18:26 1029 30.39 858 25.34 14.8 58.6 25 -5.1 22.9 15.11 0.595
18:27 1029 30.39 858 25.34 14.7 58.5 27 -4.2 24.4 15 0.591
18:28 1029 30.39 858 25.34 14.7 58.4 26 -4.6 23.8 14.87 0.585
18:29 1029 30.39 858 25.34 14.6 58.2 25 -5.2 22.6 14.8 0.583
18:30 1029 30.39 858 25.34 14.5 58.1 27 -4.3 24.2 14.73 0.58
18:31 1029 30.39 858 25.34 14.4 57.9 27 -4.3 24.2 14.65 0.577
18:32 1029 30.39 858 25.34 14.3 57.7 27 -4.6 23.7 14.59 0.574
18:33 1029 30.39 858 25.34 14.3 57.7 25 -5.3 22.5 14.58 0.574
18:34 1029 30.39 858 25.34 14.3 57.7 27 -4.6 23.8 14.58 0.574
18:35 1029 30.39 858 25.34 14.3 57.7 27 -4.6 23.7 14.62 0.576
18:36 1029 30.39 858 25.34 14.3 57.7 26 -4.7 23.6 14.63 0.576
18:37 1029 30.39 858 25.34 14.2 57.6 27 -4.4 24.1 14.6 0.575
18:38 1029 30.39 858 25.34 14.2 57.5 26 -5.1 22.8 14.51 0.571
18:39 1029 30.39 858 25.34 14.2 57.5 28 -3.8 25.2 14.47 0.57
18:40 1029 30.39 858 25.34 14.1 57.5 28 -4.1 24.7 14.48 0.57
18:41 1029 30.39 858 25.34 14.1 57.4 27 -4.4 24 14.41 0.567
18:42 1029 30.39 858 25.34 14.1 57.5 27 -4.5 23.9 14.38 0.566
18:43 1029 30.39 858 25.34 14.1 57.4 29 -3.6 25.5 14.35 0.565
18:44 1029 30.39 858 25.34 14 57.3 30 -3.4 25.9 14.3 0.563
18:45 1029 30.39 858 25.34 13.9 57.1 29 -3.7 25.4 14.2 0.559
18:46 1029 30.39 858 25.34 13.8 56.9 28 -4.4 24.1 14.07 0.554
18:47 1029 30.39 858 25.34 13.7 56.7 28 -4.3 24.3 14.01 0.552
18:48 1029 30.39 858 25.34 13.6 56.4 29 -4.3 24.3 13.87 0.546
18:49 1029 30.39 858 25.34 13.5 56.3 28 -4.4 24.2 13.83 0.544
18:50 1029 30.39 858 25.34 13.5 56.3 29 -4 24.7 13.84 0.545
18:51 1029 30.39 858 25.34 13.4 56.1 29 -4.1 24.6 13.81 0.544
18:52 1029 30.39 858 25.34 13.3 56 29 -4.1 24.6 13.7 0.539
18:53 1029 30.39 858 25.34 13.3 55.9 30 -3.9 25 13.66 0.538
18:54 1029 30.39 858 25.34 13.1 55.7 30 -4 24.9 13.55 0.533
18:55 1029 30.39 858 25.34 13.1 55.5 30 -3.9 24.9 13.47 0.53
18:56 1029 30.39 858 25.34 13 55.4 30 -4 24.8 13.36 0.526
18:57 1029 30.39 858 25.34 12.9 55.2 31 -3.9 24.9 13.31 0.524
18:58 1029 30.39 858 25.34 12.7 54.9 31 -3.9 24.9 13.26 0.522
18:59 1029 30.39 858 25.34 12.7 54.9 30 -4.5 24 13.26 0.522
19:00 1029 30.39 858 25.34 12.8 55 29 -4.8 23.4 13.28 0.523
19:01 1029 30.39 858 25.34 12.9 55.2 30 -4.2 24.5 13.29 0.523
19:02 1029 30.39 858 25.34 12.8 55 31 -3.8 25.2 13.17 0.519
19:03 1029 30.39 858 25.34 12.7 54.8 31 -4.2 24.5 13.04 0.513
19:04 1029 30.39 858 25.34 12.6 54.6 31 -4.2 24.5 12.95 0.51
19:05 1029 30.39 858 25.34 12.5 54.6 30 -4.3 24.2 12.91 0.508
19:06 1029 30.39 858 25.34 12.5 54.5 30 -4.4 24 12.91 0.508
19:07 1029 30.39 858 25.34 12.6 54.6 30 -4.5 23.9 12.95 0.51
19:08 1029 30.39 858 25.34 12.6 54.7 30 -4.4 24 12.99 0.511
19:09 1029 30.39 858 25.34 12.6 54.6 31 -4.3 24.3 12.97 0.511
19:10 1029 30.39 858 25.34 12.5 54.6 31 -4.2 24.5 12.8 0.504
19:11 1029 30.39 858 25.34 12.4 54.3 31 -4.3 24.3 12.73 0.501
19:12 1029 30.39 858 25.34 12.3 54.2 31 -4.4 24 12.68 0.499
19:13 1029 30.39 858 25.34 12.3 54.1 31 -4.3 24.2 12.62 0.497
19:14 1029 30.39 858 25.34 12.2 53.9 31 -4.4 24 12.55 0.494
19:15 1029 30.39 858 25.34 12.1 53.8 32 -3.9 24.9 12.4 0.488
19:16 1029 30.39 858 25.34 11.8 53.3 33 -4 24.8 12.17 0.479
19:17 1029 30.39 858 25.34 11.6 52.9 33 -4.2 24.5 11.98 0.472
19:18 1029 30.39 858 25.34 11.5 52.6 33 -4 24.8 11.85 0.467
19:19 1029 30.39 858 25.34 11.4 52.4 33 -4.1 24.5 11.72 0.461
19:20 1029 30.39 858 25.34 11.3 52.3 33 -4.2 24.4 11.6 0.457
19:21 1029 30.39 858 25.34 11.3 52.3 33 -4.2 24.5 11.6 0.457
19:22 1029 30.39 858 25.34 11.2 52.2 35 -3.8 25.2 11.56 0.455
19:23 1029 30.39 858 25.34 11.1 51.9 39 -2.3 27.8 11.46 0.451
19:24 1029 30.39 858 25.34 10.4 50.7 43 -1.6 29.2 10.86 0.428
19:25 1029 30.39 858 25.34 9.6 49.3 47 -1.1 30 10.11 0.398
19:26 1029 30.39 858 25.34 8.8 47.8 51 -0.7 30.8 9.32 0.367
19:27 1029 30.39 858 25.34 8 46.5 53 -1 30.2 8.55 0.337
19:28 1029 30.39 858 25.34 7.5 45.5 54 -1.2 29.8 8.01 0.315
19:29 1029 30.39 858 25.34 7.1 44.9 53 -1.8 28.8 7.62 0.3
19:30 1029 30.39 858 25.34 7.1 44.7 53 -1.8 28.7 7.47 0.294
19:31 1029 30.39 858 25.34 7 44.5 53 -1.9 28.6 7.41 0.292
19:32 1029 30.39 858 25.34 6.9 44.3 53 -2.1 28.3 7.23 0.285
19:33 1029 30.39 858 25.34 6.8 44.2 54 -1.9 28.6 7.17 0.282
19:34 1029 30.39 858 25.34 6.7 44 54 -1.9 28.5 7.05 0.278
19:35 1029 30.39 858 25.34 6.6 43.8 55 -1.9 28.7 6.953 0.274
19:36 1029 30.39 858 25.34 6.5 43.7 55 -1.8 28.8 6.876 0.271
19:37 1029 30.39 858 25.34 6.3 43.4 57 -1.6 29 6.775 0.267
19:38 1029 30.39 858 25.34 6.2 43.2 56 -1.8 28.7 6.662 0.262
19:39 1029 30.39 858 25.34 6.2 43.2 57 -1.8 28.8 6.596 0.26
19:40 1029 30.39 858 25.34 6.2 43.1 56 -1.9 28.6 6.596 0.26
19:41 1029 30.39 858 25.34 6.2 43.1 56 -1.9 28.6 6.573 0.259
19:42 1029 30.39 858 25.34 6.1 43 56 -1.9 28.5 6.518 0.257
19:43 1029 30.39 858 25.34 6.1 42.9 56 -2 28.4 6.473 0.255
19:44 1029 30.39 858 25.34 6.1 43 56 -2 28.3 6.456 0.254
19:45 1029 30.39 858 25.34 6.1 43 56 -1.9 28.6 6.497 0.256
19:46 1029 30.39 858 25.34 6.1 42.9 57 -1.8 28.8 6.451 0.254
19:47 1029 30.39 858 25.34 6 42.7 58 -1.6 29.1 6.361 0.25
19:48 1029 30.39 858 25.34 5.8 42.4 59 -1.5 29.2 6.181 0.243
19:49 1029 30.39 858 25.34 5.7 42.2 60 -1.4 29.5 6.034 0.238
19:50 1029 30.39 858 25.34 5.5 41.9 61 -1.4 29.4 5.916 0.233
19:51 1029 30.39 858 25.34 5.4 41.8 60 -1.6 29.1 5.803 0.228
19:52 1029 30.39 858 25.34 5.4 41.7 60 -1.7 29 5.775 0.227
19:53 1029 30.39 858 25.34 5.3 41.6 61 -1.7 29 5.719 0.225
19:54 1029 30.39 858 25.34 5.3 41.5 61 -1.7 29 5.685 0.224
19:55 1029 30.39 858 25.34 5.3 41.5 59 -2 28.4 5.685 0.224
19:56 1029 30.39 858 25.34 5.4 41.7 60 -1.8 28.8 5.77 0.227
19:57 1029 30.39 858 25.34 5.4 41.7 59 -1.9 28.6 5.754 0.227
19:58 1029 30.39 858 25.34 5.4 41.8 58 -2.1 28.2 5.765 0.227
19:59 1029 30.39 858 25.34 5.5 41.9 58 -2.1 28.3 5.89 0.232
20:00 1029 30.39 858 25.34 5.5 42 58 -1.9 28.5 5.925 0.233
20:01 1029 30.39 858 25.34 5.5 42 59 -1.9 28.6 5.908 0.233
20:02 1029 30.39 858 25.34 5.5 41.9 59 -1.9 28.7 5.898 0.232
20:03 1029 30.39 858 25.34 5.4 41.7 60 -1.8 28.8 5.802 0.228
20:04 1029 30.39 858 25.34 5.3 41.5 60 -1.8 28.8 5.729 0.226
20:05 1029 30.39 858 25.34 5.2 41.4 60 -1.9 28.6 5.651 0.222
20:06 1029 30.39 858 25.34 5.2 41.3 60 -1.9 28.6 5.585 0.22
20:07 1029 30.39 858 25.34 5.1 41.2 61 -1.8 28.7 5.477 0.216
20:08 1029 30.39 858 25.34 5 41 62 -1.7 28.9 5.388 0.212
20:09 1029 30.39 858 25.34 4.9 40.8 62 -1.8 28.7 5.282 0.208
20:10 1029 30.39 858 25.34 4.8 40.6 62 -1.8 28.7 5.174 0.204
20:11 1029 30.39 858 25.34 4.7 40.5 63 -1.8 28.8 5.136 0.202
20:12 1029 30.39 858 25.34 4.7 40.4 63 -1.7 28.9 5.08 0.2
20:13 1029 30.39 858 25.34 4.6 40.2 63 -1.8 28.8 4.973 0.196
20:14 1029 30.39 858 25.34 4.5 40.2 63 -1.8 28.7 4.917 0.194
20:15 1029 30.39 858 25.34 4.5 40.2 63 -1.9 28.6 4.957 0.195
20:16 1029 30.39 858 25.34 4.5 40.2 63 -1.8 28.8 4.934 0.194
20:17 1029 30.39 858 25.34 4.5 40 64 -1.7 28.9 4.862 0.191
20:18 1029 30.39 858 25.34 4.4 39.8 64 -1.7 28.9 4.766 0.188
20:19 1029 30.39 858 25.34 4.2 39.5 66 -1.7 29 4.67 0.184
20:20 1029 30.39 858 25.34 4.1 39.3 66 -1.6 29.1 4.478 0.176
20:21 1029 30.39 858 25.34 3.9 39.1 67 -1.7 28.9 4.382 0.173
20:22 1029 30.39 858 25.34 3.9 39.1 66 -1.9 28.6 4.371 0.172
20:23 1029 30.39 858 25.34 4 39.2 65 -1.9 28.6 4.423 0.174
20:24 1029 30.39 858 25.34 4.1 39.4 65 -2 28.5 4.491 0.177
20:25 1029 30.39 858 25.34 4.2 39.6 64 -1.9 28.5 4.57 0.18
20:26 1029 30.39 858 25.34 4.3 39.7 63 -2.1 28.3 4.672 0.184
20:27 1029 30.39 858 25.34 4.4 40 63 -2.1 28.3 4.774 0.188
20:28 1029 30.39 858 25.34 4.5 40 63 -1.9 28.6 4.819 0.19
20:29 1029 30.39 858 25.34 4.4 39.9 64 -1.8 28.7 4.769 0.188
20:30 1029 30.39 858 25.34 4.3 39.8 64 -1.9 28.5 4.678 0.184
20:31 1029 30.39 858 25.34 4.3 39.7 64 -1.9 28.7 4.661 0.184
20:32 1029 30.39 858 25.34 4.2 39.5 65 -1.8 28.7 4.599 0.181
20:33 1029 30.39 858 25.34 4.1 39.4 65 -1.9 28.7 4.509 0.178
20:34 1029 30.39 858 25.34 4.1 39.4 65 -1.8 28.8 4.509 0.178
20:35 1029 30.39 858 25.34 4 39.1 66 -1.7 28.9 4.39 0.173
20:36 1029 30.39 858 25.34 3.8 38.8 67 -1.7 28.9 4.193 0.165
20:37 1029 30.39 858 25.34 3.6 38.6 68 -1.7 28.9 4.03 0.159
20:38 1029 30.39 858 25.34 3.5 38.3 69 -1.7 28.9 3.919 0.154
20:39 1029 30.39 858 25.34 3.4 38.1 69 -1.7 28.9 3.794 0.149
20:40 1029 30.39 858 25.34 3.3 37.9 70 -1.7 29 3.699 0.146
20:41 1029 30.39 858 25.34 3.1 37.6 71 -1.7 29 3.548 0.14
20:42 1029 30.39 858 25.34 2.9 37.3 72 -1.7 29 3.384 0.133
20:43 1029 30.39 858 25.34 2.8 37 72 -1.7 29 3.233 0.127
20:44 1029 30.39 858 25.34 2.7 36.9 73 -1.7 29 3.137 0.124
20:45 1029 30.39 858 25.34 2.6 36.7 73 -1.7 28.9 3.013 0.119
20:46 1029 30.39 858 25.34 2.5 36.5 74 -1.7 29 2.918 0.115
20:47 1029 30.39 858 25.34 2.5 36.4 73 -1.9 28.5 2.93 0.115
20:48 1029 30.39 858 25.34 2.6 36.6 72 -2 28.4 2.947 0.116
20:49 1029 30.39 858 25.34 2.8 37.1 70 -2.1 28.2 3.168 0.125
20:50 1029 30.39 858 25.34 3.1 37.6 68 -2.1 28.2 3.389 0.133
20:51 1029 30.39 858 25.34 3.3 38 67 -2.3 27.9 3.638 0.143
20:52 1029 30.39 858 25.34 3.5 38.3 66 -2.3 27.9 3.769 0.148
20:53 1029 30.39 858 25.34 3.7 38.6 65 -2.3 27.8 3.916 0.154
20:54 1029 30.39 858 25.34 3.8 38.8 64 -2.5 27.6 4.046 0.159
20:55 1029 30.39 858 25.34 3.9 39 63 -2.6 27.3 4.103 0.162
20:56 1029 30.39 858 25.34 3.9 38.9 63 -2.6 27.4 4.098 0.161
20:57 1029 30.39 858 25.34 3.8 38.8 63 -2.6 27.3 4.047 0.159
20:58 1029 30.39 858 25.34 3.7 38.7 63 -2.6 27.3 3.985 0.157
20:59 1029 30.39 858 25.34 3.7 38.7 63 -2.5 27.4 4.053 0.16
21:00 1029 30.39 859 25.37 3.8 38.9 64 -2.4 27.6 4.15 0.163
21:01 1029 30.39 859 25.37 3.9 39 64 -2.3 27.8 4.201 0.165
21:02 1029 30.39 859 25.37 3.9 38.9 64 -2.3 27.8 4.11 0.162
21:03 1029 30.39 859 25.37 3.8 38.8 64 -2.4 27.6 4.122 0.162
21:04 1029 30.39 859 25.37 3.9 39 64 -2.3 27.8 4.139 0.163
21:05 1029 30.39 859 25.37 3.9 39 63 -2.5 27.5 4.179 0.165
21:06 1029 30.39 859 25.37 3.9 39.1 63 -2.5 27.5 4.184 0.165
21:07 1029 30.39 859 25.37 3.8 38.9 63 -2.6 27.4 4.134 0.163
21:08 1029 30.39 859 25.37 3.8 38.9 62 -2.7 27.1 4.14 0.163
21:09 1029 30.39 859 25.37 3.9 39 62 -2.7 27.1 4.179 0.165
21:10 1029 30.39 859 25.37 3.9 39.1 62 -2.8 27 4.151 0.163
21:11 1029 30.39 859 25.37 4 39.2 61 -2.8 27 4.247 0.167
21:12 1029 30.39 859 25.37 4 39.1 62 -2.6 27.3 4.27 0.168
21:13 1029 30.39 859 25.37 3.8 38.9 63 -2.5 27.5 4.119 0.162
21:14 1029 30.39 859 25.37 3.7 38.6 64 -2.5 27.4 3.955 0.156
21:15 1030 30.42 859 25.37 3.6 38.5 64 -2.6 27.3 3.887 0.153
21:16 1030 30.42 859 25.37 3.6 38.6 63 -2.6 27.2 3.911 0.154
21:17 1030 30.42 859 25.37 3.7 38.7 63 -2.6 27.3 3.968 0.156
21:18 1030 30.42 859 25.37 3.7 38.7 63 -2.6 27.4 4.053 0.16
21:19 1030 30.42 859 25.37 3.7 38.6 64 -2.5 27.5 3.946 0.155
21:20 1030 30.42 859 25.37 3.5 38.4 66 -2.3 27.8 3.878 0.153
21:21 1030 30.42 859 25.37 3.6 38.4 65 -2.4 27.7 3.885 0.153
21:22 1030 30.42 859 25.37 3.7 38.7 64 -2.5 27.6 4.05 0.159
21:23 1030 30.42 859 25.37 3.9 39.1 63 -2.4 27.7 4.197 0.165
21:24 1030 30.42 859 25.37 4 39.2 64 -2.3 27.9 4.3 0.169
21:25 1030 30.42 859 25.37 3.9 39 64 -2.2 28.1 4.261 0.168
21:26 1030 30.42 859 25.37 3.9 39 65 -2.2 28.1 4.222 0.166
21:27 1030 30.42 859 25.37 3.9 39 65 -2.1 28.2 4.206 0.166
21:28 1030 30.42 859 25.37 3.9 39 65 -2.1 28.3 4.206 0.166
21:29 1030 30.42 859 25.37 3.8 38.9 65 -2.1 28.2 4.184 0.165
21:30 1030 30.42 859 25.37 3.8 38.9 65 -2.2 28 4.167 0.164
21:31 1030 30.42 859 25.37 3.9 39 64 -2.3 27.8 4.264 0.168
21:32 1030 30.42 859 25.37 4.1 39.4 63 -2.3 27.9 4.4 0.173
21:33 1030 30.42 859 25.37 4.3 39.7 63 -2.2 28.1 4.514 0.178
21:34 1030 30.42 859 25.37 4.3 39.8 63 -2 28.4 4.622 0.182
21:35 1030 30.42 859 25.37 4.3 39.8 64 -2 28.5 4.633 0.182
21:36 1030 30.42 859 25.37 4.2 39.5 64 -1.9 28.5 4.537 0.179
21:37 1030 30.42 859 25.37 4.1 39.3 64 -2.1 28.2 4.385 0.173
21:38 1030 30.42 859 25.37 4.1 39.3 62 -2.5 27.5 4.43 0.174
21:39 1030 30.42 859 25.37 4.4 39.9 61 -2.5 27.5 4.679 0.184
21:40 1030 30.42 859 25.37 4.6 40.3 61 -2.3 27.9 4.861 0.191
21:41 1030 30.42 859 25.37 4.7 40.4 60 -2.3 27.8 4.923 0.194
21:42 1030 30.42 859 25.37 4.7 40.5 61 -2.1 28.3 4.963 0.195
21:43 1030 30.42 859 25.37 4.6 40.2 63 -1.9 28.5 4.861 0.191
21:44 1030 30.42 859 25.37 4.4 39.9 63 -1.9 28.6 4.737 0.186
21:45 1030 30.42 859 25.37 4.3 39.7 64 -1.9 28.5 4.601 0.181
21:46 1030 30.42 859 25.37 4.2 39.6 64 -2 28.5 4.556 0.179
21:47 1030 30.42 859 25.37 4.2 39.6 65 -1.8 28.7 4.573 0.18
21:48 1030 30.42 859 25.37 4.2 39.5 65 -1.8 28.7 4.556 0.179
21:49 1030 30.42 859 25.37 4.2 39.5 65 -1.8 28.8 4.511 0.178
21:50 1030 30.42 859 25.37 4.1 39.3 66 -1.7 28.9 4.46 0.176
21:51 1030 30.42 859 25.37 4 39.2 66 -1.7 28.9 4.33 0.17
21:52 1030 30.42 859 25.37 3.9 39 66 -1.8 28.8 4.302 0.169
21:53 1030 30.42 859 25.37 3.9 38.9 67 -1.7 28.9 4.206 0.166
21:54 1030 30.42 859 25.37 3.7 38.7 68 -1.7 29 4.099 0.161
21:55 1030 30.42 859 25.37 3.6 38.5 68 -1.7 28.9 3.991 0.157
21:56 1030 30.42 859 25.37 3.5 38.3 67 -2 28.4 3.85 0.152
21:57 1030 30.42 859 25.37 3.6 38.5 67 -1.9 28.6 3.929 0.155
21:58 1030 30.42 859 25.37 3.6 38.5 66 -2.1 28.2 3.969 0.156
21:59 1030 30.42 859 25.37 3.7 38.6 66 -2.1 28.2 4.008 0.158
22:00 1030 30.42 859 25.37 3.7 38.6 66 -2.1 28.2 4.003 0.158
22:01 1030 30.42 859 25.37 3.6 38.4 67 -2.1 28.3 3.901 0.154
22:02 1030 30.42 859 25.37 3.4 38.1 67 -2 28.3 3.759 0.148
22:03 1030 30.42 859 25.37 3.3 37.9 68 -2.1 28.3 3.635 0.143
22:04 1030 30.42 859 25.37 3.1 37.6 69 -2.1 28.3 3.494 0.138
22:05 1030 30.42 859 25.37 3 37.4 69 -2.1 28.2 3.392 0.134
22:06 1030 30.42 859 25.37 3 37.4 69 -2.1 28.2 3.364 0.132
22:07 1030 30.42 859 25.37 3 37.4 69 -2.1 28.2 3.375 0.133
22:08 1030 30.42 859 25.37 3 37.4 69 -2.1 28.1 3.341 0.132
22:09 1030 30.42 859 25.37 3 37.4 69 -2.1 28.2 3.386 0.133
22:10 1030 30.42 859 25.37 3.1 37.5 69 -2.1 28.2 3.369 0.133
22:11 1030 30.42 859 25.37 3 37.5 69 -2.2 28.1 3.364 0.132
22:12 1030 30.42 859 25.37 3.1 37.5 68 -2.2 28.1 3.398 0.134
22:13 1030 30.42 859 25.37 3.1 37.6 68 -2.2 28 3.471 0.137
22:14 1030 30.42 859 25.37 3.3 37.9 67 -2.2 28 3.613 0.142
22:15 1030 30.42 859 25.37 3.4 38.1 67 -2.2 28.1 3.703 0.146
22:16 1030 30.42 859 25.37 3.4 38.2 67 -2.1 28.1 3.754 0.148
22:17 1030 30.42 859 25.37 3.5 38.3 67 -2.1 28.2 3.811 0.15
22:18 1030 30.42 859 25.37 3.6 38.5 66 -2.2 28 3.929 0.155
22:19 1030 30.42 859 25.37 3.8 38.8 65 -2.2 28.1 4.048 0.159
22:20 1030 30.42 859 25.37 3.9 38.9 65 -2.1 28.2 4.15 0.163
22:21 1030 30.42 859 25.37 3.9 39 65 -2.2 28.1 4.195 0.165
22:22 1030 30.42 859 25.37 3.9 39 65 -2.1 28.3 4.212 0.166
22:23 1030 30.42 859 25.37 3.9 39 65 -2 28.4 4.219 0.166
22:24 1030 30.42 859 25.37 3.9 39 65 -2.1 28.1 4.214 0.166
22:25 1030 30.42 859 25.37 3.9 39.1 64 -2.2 28.1 4.282 0.169
22:26 1030 30.42 859 25.37 4 39.3 63 -2.3 27.8 4.322 0.17
22:27 1030 30.42 859 25.37 4.2 39.5 63 -2.2 28.1 4.464 0.176
22:28 1030 30.42 859 25.37 4.2 39.5 63 -2.2 28 4.504 0.177
22:29 1030 30.42 859 25.37 4.3 39.7 62 -2.4 27.7 4.578 0.18
22:30 1030 30.42 859 25.37 4.5 40.1 60 -2.5 27.5 4.793 0.189
22:31 1030 30.42 859 25.37 4.7 40.5 60 -2.4 27.7 4.997 0.197
22:32 1030 30.42 859 25.37 4.8 40.6 60 -2.3 27.9 5.048 0.199
22:33 1030 30.42 859 25.37 4.8 40.6 60 -2.3 27.8 5.088 0.2
22:34 1030 30.42 859 25.37 4.8 40.7 60 -2.4 27.7 5.133 0.202
22:35 1030 30.42 859 25.37 4.8 40.6 60 -2.2 28 5.145 0.203
22:36 1030 30.42 859 25.37 4.7 40.5 61 -2.2 28.1 5.072 0.2
22:37 1030 30.42 859 25.37 4.6 40.3 61 -2.1 28.1 4.976 0.196
22:38 1030 30.42 859 25.37 4.5 40.2 62 -2 28.4 4.886 0.192
22:39 1030 30.42 859 25.37 4.3 39.8 64 -1.9 28.5 4.716 0.186
22:40 1030 30.42 859 25.37 4.1 39.4 65 -2 28.4 4.535 0.179
22:41 1030 30.42 859 25.37 4 39.2 65 -2 28.4 4.399 0.173
22:42 1030 30.42 859 25.37 3.9 39 65 -2.2 28 4.281 0.169
22:43 1030 30.42 859 25.37 3.9 39 64 -2.3 27.8 4.247 0.167
22:44 1030 30.42 859 25.37 3.8 38.9 64 -2.4 27.6 4.168 0.164
22:45 1030 30.42 859 25.37 3.9 38.9 63 -2.5 27.5 4.213 0.166
22:46 1030 30.42 859 25.37 3.9 39 64 -2.4 27.7 4.241 0.167
22:47 1030 30.42 859 25.37 3.9 39 63 -2.5 27.6 4.219 0.166
22:48 1030 30.42 859 25.37 3.9 38.9 63 -2.5 27.5 4.23 0.167
22:49 1030 30.42 859 25.37 3.9 38.9 64 -2.4 27.7 4.213 0.166
22:50 1030 30.42 859 25.37 3.8 38.9 64 -2.3 27.8 4.174 0.164
22:51 1030 30.42 859 25.37 3.8 38.8 64 -2.3 27.8 4.14 0.163
22:52 1030 30.42 859 25.37 3.7 38.7 64 -2.4 27.6 4.106 0.162
22:53 1030 30.42 859 25.37 3.8 38.9 63 -2.5 27.5 4.214 0.166
22:54 1030 30.42 859 25.37 3.9 39 63 -2.5 27.5 4.231 0.167
22:55 1030 30.42 859 25.37 3.9 39 64 -2.3 27.9 4.248 0.167
22:56 1030 30.42 859 25.37 3.9 38.9 63 -2.5 27.6 4.221 0.166
22:57 1030 30.42 859 25.37 3.8 38.9 63 -2.6 27.4 4.204 0.166
22:58 1030 30.42 859 25.37 3.9 39.1 62 -2.6 27.3 4.266 0.168
22:59 1030 30.42 859 25.37 3.9 39.1 62 -2.6 27.3 4.306 0.17
23:00 1030 30.42 859 25.37 3.9 39.1 62 -2.6 27.3 4.266 0.168
23:01 1030 30.42 859 25.37 3.9 39 62 -2.6 27.3 4.238 0.167
23:02 1030 30.42 859 25.37 3.9 39 62 -2.8 27 4.256 0.168
23:03 1030 30.42 859 25.37 4 39.2 61 -2.9 26.8 4.381 0.172
23:04 1030 30.42 859 25.37 4.2 39.5 60 -2.8 26.9 4.444 0.175
23:05 1030 30.42 859 25.37 4.2 39.6 60 -2.7 27.1 4.557 0.179
23:06 1030 30.42 859 25.37 4.3 39.7 60 -2.8 26.9 4.568 0.18
23:07 1030 30.42 859 25.37 4.4 39.8 59 -2.9 26.8 4.671 0.184
23:08 1030 30.42 859 25.37 4.5 40 59 -2.8 27 4.733 0.186
23:09 1030 30.42 859 25.37 4.5 40.1 59 -2.8 27 4.779 0.188
23:10 1030 30.42 859 25.37 4.5 40.2 60 -2.6 27.3 4.818 0.19
23:11 1030 30.42 859 25.37 4.4 39.9 60 -2.7 27.2 4.676 0.184
23:12 1030 30.42 859 25.37 4.3 39.8 60 -2.8 27 4.642 0.183
23:13 1030 30.42 859 25.37 4.5 40 59 -2.9 26.7 4.722 0.186
23:14 1030 30.42 859 25.37 4.6 40.3 59 -2.8 27 4.824 0.19
23:15 1030 30.42 859 25.37 4.6 40.2 59 -2.7 27.1 4.835 0.19
23:16 1030 30.42 859 25.37 4.5 40.1 60 -2.7 27.1 4.808 0.189
23:17 1030 30.42 859 25.37 4.5 40.1 60 -2.7 27.2 4.768 0.188
23:18 1030 30.42 859 25.37 4.5 40.1 59 -2.7 27.1 4.842 0.191
23:19 1030 30.42 859 25.37 4.6 40.3 59 -2.7 27.2 4.87 0.192
23:20 1030 30.42 859 25.37 4.7 40.4 58 -2.8 26.9 4.978 0.196
23:21 1030 30.42 859 25.37 4.8 40.7 58 -2.8 27 5.136 0.202
23:22 1030 30.42 859 25.37 4.9 40.9 58 -2.6 27.3 5.21 0.205
23:23 1030 30.42 859 25.37 4.9 40.8 58 -2.6 27.2 5.182 0.204
23:24 1030 30.42 859 25.37 4.9 40.8 58 -2.8 27 5.182 0.204
23:25 1030 30.42 859 25.37 4.9 40.8 58 -2.7 27.1 5.211 0.205
23:26 1030 30.42 859 25.37 4.9 40.8 58 -2.7 27.1 5.166 0.203
23:27 1030 30.42 859 25.37 4.8 40.6 58 -2.7 27.2 5.103 0.201
23:28 1030 30.42 859 25.37 4.7 40.5 59 -2.7 27.2 5.013 0.197
23:29 1030 30.42 859 25.37 4.6 40.3 59 -2.7 27.1 4.951 0.195
23:30 1030 30.42 859 25.37 4.6 40.2 59 -2.8 27 4.877 0.192
23:31 1030 30.42 859 25.37 4.5 40.2 60 -2.6 27.3 4.894 0.193
23:32 1030 30.42 859 25.37 4.5 40.1 60 -2.5 27.5 4.821 0.19
23:33 1030 30.42 859 25.37 4.3 39.7 61 -2.6 27.4 4.628 0.182
23:34 1030 30.42 859 25.37 4.2 39.5 61 -2.7 27.1 4.532 0.178
23:35 1030 30.42 859 25.37 4.2 39.6 61 -2.6 27.2 4.549 0.179
23:36 1030 30.42 859 25.37 4.4 39.9 60 -2.7 27.2 4.663 0.184
23:37 1030 30.42 859 25.37 4.5 40.1 60 -2.7 27.1 4.787 0.188
23:38 1030 30.42 859 25.37 4.6 40.3 59 -2.8 27 4.878 0.192
23:39 1030 30.42 859 25.37 4.7 40.4 60 -2.5 27.5 4.951 0.195
23:40 1030 30.42 859 25.37 4.6 40.3 60 -2.5 27.5 4.9 0.193
23:41 1030 30.42 859 25.37 4.6 40.2 60 -2.6 27.3 4.872 0.192
23:42 1030 30.42 859 25.37 4.6 40.2 60 -2.5 27.5 4.861 0.191
23:43 1030 30.42 859 25.37 4.5 40.1 60 -2.5 27.5 4.81 0.189
23:44 1030 30.42 859 25.37 4.5 40 60 -2.7 27.2 4.776 0.188
23:45 1030 30.42 859 25.37 4.4 40 60 -2.6 27.3 4.776 0.188
23:46 1030 30.42 859 25.37 4.4 39.9 60 -2.7 27.2 4.77 0.188
23:47 1030 30.42 859 25.37 4.4 40 60 -2.6 27.3 4.804 0.189
23:48 1030 30.42 859 25.37 4.4 40 60 -2.7 27.2 4.799 0.189
23:49 1030 30.42 859 25.37 4.5 40.1 60 -2.6 27.3 4.85 0.191
23:50 1030 30.42 859 25.37 4.5 40 60 -2.6 27.4 4.799 0.189
23:51 1030 30.42 859 25.37 4.4 39.9 60 -2.6 27.4 4.765 0.188
23:52 1030 30.42 859 25.37 4.4 39.9 61 -2.5 27.5 4.714 0.186
23:53 1030 30.42 859 25.37 4.2 39.6 62 -2.4 27.7 4.606 0.181
23:54 1030 30.42 859 25.37 4.1 39.3 63 -2.4 27.6 4.425 0.174
23:55 1030 30.42 859 25.37 3.8 38.9 65 -2.2 28 4.199 0.165
23:56 1030 30.42 859 25.37 3.6 38.4 65 -2.3 27.8 3.973 0.156
23:57 1030 30.42 859 25.37 3.3 38 66 -2.4 27.8 3.786 0.149
23:58 1030 30.42 859 25.37 3.2 37.7 67 -2.4 27.6 3.548 0.14
23:59 1030 30.42 859 25.37 3.1 37.5 67 -2.4 27.7 3.418 0.135
24:00 1030 30.42 859 25.37 2.9 37.3 68 -2.3 27.9 3.288 0.129